﻿<?xml version="1.0" encoding="utf-8"?><gpx creator="Garmin Desktop App" version="1.1" xsi:schemaLocation="http://www.topografix.com/GPX/1/1 http://www.topografix.com/GPX/1/1/gpx.xsd http://www.garmin.com/xmlschemas/WaypointExtension/v1 http://www8.garmin.com/xmlschemas/WaypointExtensionv1.xsd http://www.garmin.com/xmlschemas/TrackPointExtension/v1 http://www.garmin.com/xmlschemas/TrackPointExtensionv1.xsd http://www.garmin.com/xmlschemas/GpxExtensions/v3 http://www8.garmin.com/xmlschemas/GpxExtensionsv3.xsd http://www.garmin.com/xmlschemas/ActivityExtension/v1 http://www8.garmin.com/xmlschemas/ActivityExtensionv1.xsd http://www.garmin.com/xmlschemas/AdventuresExtensions/v1 http://www8.garmin.com/xmlschemas/AdventuresExtensionv1.xsd http://www.garmin.com/xmlschemas/PressureExtension/v1 http://www.garmin.com/xmlschemas/PressureExtensionv1.xsd http://www.garmin.com/xmlschemas/TripExtensions/v1 http://www.garmin.com/xmlschemas/TripExtensionsv1.xsd http://www.garmin.com/xmlschemas/TripMetaDataExtensions/v1 http://www.garmin.com/xmlschemas/TripMetaDataExtensionsv1.xsd http://www.garmin.com/xmlschemas/ViaPointTransportationModeExtensions/v1 http://www.garmin.com/xmlschemas/ViaPointTransportationModeExtensionsv1.xsd http://www.garmin.com/xmlschemas/CreationTimeExtension/v1 http://www.garmin.com/xmlschemas/CreationTimeExtensionsv1.xsd http://www.garmin.com/xmlschemas/AccelerationExtension/v1 http://www.garmin.com/xmlschemas/AccelerationExtensionv1.xsd http://www.garmin.com/xmlschemas/PowerExtension/v1 http://www.garmin.com/xmlschemas/PowerExtensionv1.xsd http://www.garmin.com/xmlschemas/VideoExtension/v1 http://www.garmin.com/xmlschemas/VideoExtensionv1.xsd" xmlns="http://www.topografix.com/GPX/1/1" xmlns:xsi="http://www.w3.org/2001/XMLSchema-instance" xmlns:wptx1="http://www.garmin.com/xmlschemas/WaypointExtension/v1" xmlns:gpxtrx="http://www.garmin.com/xmlschemas/GpxExtensions/v3" xmlns:gpxtpx="http://www.garmin.com/xmlschemas/TrackPointExtension/v1" xmlns:gpxx="http://www.garmin.com/xmlschemas/GpxExtensions/v3" xmlns:trp="http://www.garmin.com/xmlschemas/TripExtensions/v1" xmlns:adv="http://www.garmin.com/xmlschemas/AdventuresExtensions/v1" xmlns:prs="http://www.garmin.com/xmlschemas/PressureExtension/v1" xmlns:tmd="http://www.garmin.com/xmlschemas/TripMetaDataExtensions/v1" xmlns:vptm="http://www.garmin.com/xmlschemas/ViaPointTransportationModeExtensions/v1" xmlns:ctx="http://www.garmin.com/xmlschemas/CreationTimeExtension/v1" xmlns:gpxacc="http://www.garmin.com/xmlschemas/AccelerationExtension/v1" xmlns:gpxpx="http://www.garmin.com/xmlschemas/PowerExtension/v1" xmlns:vidx1="http://www.garmin.com/xmlschemas/VideoExtension/v1">

  <metadata>
    <link href="http://www.garmin.com">
      <text>Garmin International</text>
    </link>
    <time>2025-05-04T17:52:50Z</time>
    <bounds maxlat="45.9897849150002" maxlon="8.061770545318723" minlat="45.973332999274135" minlon="8.034693142399192" />
  </metadata>

  <trk>
    <name>Alpe-cortenero-da-mondelli2025-05-04</name>
    <extensions>
      <gpxx:TrackExtension>
        <gpxx:DisplayColor>Red</gpxx:DisplayColor>
      </gpxx:TrackExtension>
      <gpxtrkx:TrackStatsExtension xmlns:gpxtrkx="http://www.garmin.com/xmlschemas/TrackStatsExtension/v1">
        <gpxtrkx:Distance>10963</gpxtrkx:Distance>
        <gpxtrkx:TotalElapsedTime>23495</gpxtrkx:TotalElapsedTime>
        <gpxtrkx:MovingTime>17073</gpxtrkx:MovingTime>
        <gpxtrkx:StoppedTime>6412</gpxtrkx:StoppedTime>
        <gpxtrkx:MovingSpeed>0.642</gpxtrkx:MovingSpeed>
        <gpxtrkx:MaxSpeed>2.917</gpxtrkx:MaxSpeed>
        <gpxtrkx:MaxElevation>2054.121</gpxtrkx:MaxElevation>
        <gpxtrkx:MinElevation>1147.787</gpxtrkx:MinElevation>
        <gpxtrkx:Ascent>1019</gpxtrkx:Ascent>
        <gpxtrkx:Descent>1006.072</gpxtrkx:Descent>
        <gpxtrkx:AvgAscentRate>0.07</gpxtrkx:AvgAscentRate>
        <gpxtrkx:MaxAscentRate>0.298</gpxtrkx:MaxAscentRate>
        <gpxtrkx:AvgDescentRate>0.099</gpxtrkx:AvgDescentRate>
        <gpxtrkx:MaxDescentRate>-0.371</gpxtrkx:MaxDescentRate>
      </gpxtrkx:TrackStatsExtension>
    </extensions>
    <trkseg>
      <trkpt lat="45.973332999274135" lon="8.040322512388229">
        <ele>1147.78</ele>
        <time>2025-05-04T06:32:52Z</time>
      </trkpt>
      <trkpt lat="45.973374489694834" lon="8.040348328649998">
        <ele>1178.0999999999999</ele>
        <time>2025-05-04T06:33:56Z</time>
      </trkpt>
      <trkpt lat="45.973373567685485" lon="8.040405493229628">
        <ele>1178.6099999999999</ele>
        <time>2025-05-04T06:34:36Z</time>
      </trkpt>
      <trkpt lat="45.973379099741578" lon="8.040541699156165">
        <ele>1177.5799999999999</ele>
        <time>2025-05-04T06:34:45Z</time>
      </trkpt>
      <trkpt lat="45.973375327885151" lon="8.040477409958839">
        <ele>1178.3299999999999</ele>
        <time>2025-05-04T06:35:39Z</time>
      </trkpt>
      <trkpt lat="45.973372813314199" lon="8.040339024737477">
        <ele>1179.99</ele>
        <time>2025-05-04T06:35:55Z</time>
      </trkpt>
      <trkpt lat="45.973371975123882" lon="8.040336677804589">
        <ele>1180.26</ele>
        <time>2025-05-04T06:37:42Z</time>
      </trkpt>
      <trkpt lat="45.97334012389183" lon="8.040351094678044">
        <ele>1180.6199999999999</ele>
        <time>2025-05-04T06:38:46Z</time>
      </trkpt>
      <trkpt lat="45.973377423360944" lon="8.040351094678044">
        <ele>1182.1900000000001</ele>
        <time>2025-05-04T06:39:44Z</time>
      </trkpt>
      <trkpt lat="45.973391085863113" lon="8.040328714996576">
        <ele>1181.6099999999999</ele>
        <time>2025-05-04T06:41:47Z</time>
      </trkpt>
      <trkpt lat="45.97341681830585" lon="8.040306000038981">
        <ele>1182.47</ele>
        <time>2025-05-04T06:43:04Z</time>
      </trkpt>
      <trkpt lat="45.973446574062109" lon="8.040177170187235">
        <ele>1183.6500000000001</ele>
        <time>2025-05-04T06:43:15Z</time>
      </trkpt>
      <trkpt lat="45.973479766398668" lon="8.040055129677057">
        <ele>1184.29</ele>
        <time>2025-05-04T06:43:25Z</time>
      </trkpt>
      <trkpt lat="45.973509270697832" lon="8.039928646758199">
        <ele>1185.1800000000001</ele>
        <time>2025-05-04T06:43:37Z</time>
      </trkpt>
      <trkpt lat="45.973555287346244" lon="8.0397938657552">
        <ele>1186.3800000000001</ele>
        <time>2025-05-04T06:43:52Z</time>
      </trkpt>
      <trkpt lat="45.973578253760934" lon="8.039637627080083">
        <ele>1187.6500000000001</ele>
        <time>2025-05-04T06:44:04Z</time>
      </trkpt>
      <trkpt lat="45.973653858527541" lon="8.039531176909804">
        <ele>1188.6700000000001</ele>
        <time>2025-05-04T06:44:15Z</time>
      </trkpt>
      <trkpt lat="45.97369777970016" lon="8.0394088011235">
        <ele>1190.6199999999999</ele>
        <time>2025-05-04T06:44:28Z</time>
      </trkpt>
      <trkpt lat="45.973720662295818" lon="8.039230601862073">
        <ele>1192.52</ele>
        <time>2025-05-04T06:44:41Z</time>
      </trkpt>
      <trkpt lat="45.973771875724196" lon="8.039097161963582">
        <ele>1194.55</ele>
        <time>2025-05-04T06:44:54Z</time>
      </trkpt>
      <trkpt lat="45.973929539322853" lon="8.039129683747888">
        <ele>1195.77</ele>
        <time>2025-05-04T06:45:06Z</time>
      </trkpt>
      <trkpt lat="45.974018555134535" lon="8.039093725383282">
        <ele>1196.8499999999999</ele>
        <time>2025-05-04T06:45:17Z</time>
      </trkpt>
      <trkpt lat="45.97415710799396" lon="8.039105543866754">
        <ele>1197.8900000000001</ele>
        <time>2025-05-04T06:45:30Z</time>
      </trkpt>
      <trkpt lat="45.974226091057062" lon="8.03900521248579">
        <ele>1199.1900000000001</ele>
        <time>2025-05-04T06:45:41Z</time>
      </trkpt>
      <trkpt lat="45.97433497197926" lon="8.038961961865425">
        <ele>1200</ele>
        <time>2025-05-04T06:45:51Z</time>
      </trkpt>
      <trkpt lat="45.97440579906106" lon="8.038844866678119">
        <ele>1200.8900000000001</ele>
        <time>2025-05-04T06:46:01Z</time>
      </trkpt>
      <trkpt lat="45.974478637799621" lon="8.038769010454416">
        <ele>1203.73</ele>
        <time>2025-05-04T06:46:18Z</time>
      </trkpt>
      <trkpt lat="45.974570252001286" lon="8.038674127310515">
        <ele>1205.6300000000001</ele>
        <time>2025-05-04T06:46:32Z</time>
      </trkpt>
      <trkpt lat="45.97468625754118" lon="8.03868955001235">
        <ele>1207</ele>
        <time>2025-05-04T06:46:44Z</time>
      </trkpt>
      <trkpt lat="45.974784912541509" lon="8.038660297170281">
        <ele>1208.5999999999999</ele>
        <time>2025-05-04T06:47:01Z</time>
      </trkpt>
      <trkpt lat="45.974875269457698" lon="8.038626350462437">
        <ele>1210.54</ele>
        <time>2025-05-04T06:47:16Z</time>
      </trkpt>
      <trkpt lat="45.974952550604939" lon="8.038561977446079">
        <ele>1211.49</ele>
        <time>2025-05-04T06:47:31Z</time>
      </trkpt>
      <trkpt lat="45.975040560588241" lon="8.038512356579304">
        <ele>1213.55</ele>
        <time>2025-05-04T06:47:46Z</time>
      </trkpt>
      <trkpt lat="45.975120104849339" lon="8.038462148979306">
        <ele>1216.0599999999999</ele>
        <time>2025-05-04T06:48:05Z</time>
      </trkpt>
      <trkpt lat="45.975177939981222" lon="8.03837338462472">
        <ele>1219.48</ele>
        <time>2025-05-04T06:48:33Z</time>
      </trkpt>
      <trkpt lat="45.975262178108096" lon="8.038309598341584">
        <ele>1222.8499999999999</ele>
        <time>2025-05-04T06:48:49Z</time>
      </trkpt>
      <trkpt lat="45.975356725975871" lon="8.038268107920885">
        <ele>1225.6400000000001</ele>
        <time>2025-05-04T06:49:05Z</time>
      </trkpt>
      <trkpt lat="45.975445657968521" lon="8.038236424326897">
        <ele>1228.4400000000001</ele>
        <time>2025-05-04T06:49:23Z</time>
      </trkpt>
      <trkpt lat="45.97552327439189" lon="8.038152605295181">
        <ele>1230.9200000000001</ele>
        <time>2025-05-04T06:49:39Z</time>
      </trkpt>
      <trkpt lat="45.975584965199232" lon="8.038094853982329">
        <ele>1233.5899999999999</ele>
        <time>2025-05-04T06:50:00Z</time>
      </trkpt>
      <trkpt lat="45.975596029311419" lon="8.038222175091505">
        <ele>1236.3199999999999</ele>
        <time>2025-05-04T06:50:21Z</time>
      </trkpt>
      <trkpt lat="45.975608602166176" lon="8.03838612511754">
        <ele>1238.9000000000001</ele>
        <time>2025-05-04T06:50:41Z</time>
      </trkpt>
      <trkpt lat="45.97558630630374" lon="8.038513530045748">
        <ele>1241.51</ele>
        <time>2025-05-04T06:51:02Z</time>
      </trkpt>
      <trkpt lat="45.975609188899398" lon="8.038609502837062">
        <ele>1244.1099999999999</ele>
        <time>2025-05-04T06:51:22Z</time>
      </trkpt>
      <trkpt lat="45.975595274940133" lon="8.038739003241062">
        <ele>1247.8399999999999</ele>
        <time>2025-05-04T06:51:43Z</time>
      </trkpt>
      <trkpt lat="45.975549006834626" lon="8.038855846971273">
        <ele>1250.3699999999999</ele>
        <time>2025-05-04T06:51:58Z</time>
      </trkpt>
      <trkpt lat="45.975531237199903" lon="8.038945868611336">
        <ele>1253.23</ele>
        <time>2025-05-04T06:52:23Z</time>
      </trkpt>
      <trkpt lat="45.975558813661337" lon="8.039055336266756">
        <ele>1255.95</ele>
        <time>2025-05-04T06:52:43Z</time>
      </trkpt>
      <trkpt lat="45.975587731227279" lon="8.039240073412657">
        <ele>1257.3599999999999</ele>
        <time>2025-05-04T06:53:00Z</time>
      </trkpt>
      <trkpt lat="45.975549845024943" lon="8.039303859695792">
        <ele>1259.5599999999999</ele>
        <time>2025-05-04T06:53:18Z</time>
      </trkpt>
      <trkpt lat="45.975468037649989" lon="8.039377201348543">
        <ele>1263.6800000000001</ele>
        <time>2025-05-04T06:53:42Z</time>
      </trkpt>
      <trkpt lat="45.975388744845986" lon="8.039485663175583">
        <ele>1266</ele>
        <time>2025-05-04T06:54:02Z</time>
      </trkpt>
      <trkpt lat="45.975404167547822" lon="8.039558501914144">
        <ele>1269.1600000000001</ele>
        <time>2025-05-04T06:54:27Z</time>
      </trkpt>
      <trkpt lat="45.975421015173197" lon="8.039661683142185">
        <ele>1272.7</ele>
        <time>2025-05-04T06:54:47Z</time>
      </trkpt>
      <trkpt lat="45.975430319085717" lon="8.039776850491762">
        <ele>1274.54</ele>
        <time>2025-05-04T06:55:10Z</time>
      </trkpt>
      <trkpt lat="45.975411124527454" lon="8.039895035326481">
        <ele>1276.9200000000001</ele>
        <time>2025-05-04T06:55:35Z</time>
      </trkpt>
      <trkpt lat="45.975455464795232" lon="8.040004670619965">
        <ele>1280.0599999999999</ele>
        <time>2025-05-04T06:56:03Z</time>
      </trkpt>
      <trkpt lat="45.975501397624612" lon="8.040110366418958">
        <ele>1283.49</ele>
        <time>2025-05-04T06:56:26Z</time>
      </trkpt>
      <trkpt lat="45.975491171702743" lon="8.040239280089736">
        <ele>1287.02</ele>
        <time>2025-05-04T06:56:49Z</time>
      </trkpt>
      <trkpt lat="45.975470552220941" lon="8.040352771058679">
        <ele>1290.6800000000001</ele>
        <time>2025-05-04T06:57:12Z</time>
      </trkpt>
      <trkpt lat="45.975456302985549" lon="8.040387807413936">
        <ele>1293.5</ele>
        <time>2025-05-04T06:57:35Z</time>
      </trkpt>
      <trkpt lat="45.975474156439304" lon="8.040480008348823">
        <ele>1297.1500000000001</ele>
        <time>2025-05-04T06:57:56Z</time>
      </trkpt>
      <trkpt lat="45.975439539179206" lon="8.040625602006912">
        <ele>1300.76</ele>
        <time>2025-05-04T06:58:21Z</time>
      </trkpt>
      <trkpt lat="45.975467450916767" lon="8.04072517901659">
        <ele>1302.9100000000001</ele>
        <time>2025-05-04T06:58:40Z</time>
      </trkpt>
      <trkpt lat="45.975503828376532" lon="8.040797431021929">
        <ele>1305.3599999999999</ele>
        <time>2025-05-04T06:59:00Z</time>
      </trkpt>
      <trkpt lat="45.975547330453992" lon="8.040925925597549">
        <ele>1308.2</ele>
        <time>2025-05-04T06:59:20Z</time>
      </trkpt>
      <trkpt lat="45.975542720407248" lon="8.04099390283227">
        <ele>1309.47</ele>
        <time>2025-05-04T06:59:39Z</time>
      </trkpt>
      <trkpt lat="45.975505337119102" lon="8.041061041876674">
        <ele>1311.3299999999999</ele>
        <time>2025-05-04T07:00:09Z</time>
      </trkpt>
      <trkpt lat="45.975652104243636" lon="8.041114853695035">
        <ele>1311.73</ele>
        <time>2025-05-04T07:00:26Z</time>
      </trkpt>
      <trkpt lat="45.975703233852983" lon="8.041127761825919">
        <ele>1314</ele>
        <time>2025-05-04T07:00:48Z</time>
      </trkpt>
      <trkpt lat="45.975755369290709" lon="8.041239911690354">
        <ele>1317.01</ele>
        <time>2025-05-04T07:01:07Z</time>
      </trkpt>
      <trkpt lat="45.975691918283701" lon="8.041377039626241">
        <ele>1318.78</ele>
        <time>2025-05-04T07:01:27Z</time>
      </trkpt>
      <trkpt lat="45.975707676261663" lon="8.04147670045495">
        <ele>1322.0699999999999</ele>
        <time>2025-05-04T07:01:47Z</time>
      </trkpt>
      <trkpt lat="45.975757464766502" lon="8.041525734588504">
        <ele>1324.46</ele>
        <time>2025-05-04T07:02:10Z</time>
      </trkpt>
      <trkpt lat="45.975772719830275" lon="8.041606200858951">
        <ele>1326.9300000000001</ele>
        <time>2025-05-04T07:02:27Z</time>
      </trkpt>
      <trkpt lat="45.975745981559157" lon="8.041683062911034">
        <ele>1328.71</ele>
        <time>2025-05-04T07:02:51Z</time>
      </trkpt>
      <trkpt lat="45.975788729265332" lon="8.041748441755772">
        <ele>1332.45</ele>
        <time>2025-05-04T07:03:20Z</time>
      </trkpt>
      <trkpt lat="45.97579350695014" lon="8.041811222210527">
        <ele>1334.29</ele>
        <time>2025-05-04T07:03:39Z</time>
      </trkpt>
      <trkpt lat="45.975869614630938" lon="8.041859166696668">
        <ele>1336.1400000000001</ele>
        <time>2025-05-04T07:03:55Z</time>
      </trkpt>
      <trkpt lat="45.975894592702389" lon="8.041854640468955">
        <ele>1339.4200000000001</ele>
        <time>2025-05-04T07:04:15Z</time>
      </trkpt>
      <trkpt lat="45.975989308208227" lon="8.041877439245582">
        <ele>1343.0699999999999</ele>
        <time>2025-05-04T07:04:36Z</time>
      </trkpt>
      <trkpt lat="45.976047478616238" lon="8.041806276887655">
        <ele>1346.1900000000001</ele>
        <time>2025-05-04T07:04:55Z</time>
      </trkpt>
      <trkpt lat="45.976090226322412" lon="8.041771156713367">
        <ele>1348.7</ele>
        <time>2025-05-04T07:05:17Z</time>
      </trkpt>
      <trkpt lat="45.976180583238602" lon="8.041727067902684">
        <ele>1351.76</ele>
        <time>2025-05-04T07:05:35Z</time>
      </trkpt>
      <trkpt lat="45.976183181628585" lon="8.041648529469967">
        <ele>1354.6400000000001</ele>
        <time>2025-05-04T07:05:54Z</time>
      </trkpt>
      <trkpt lat="45.976236071437597" lon="8.041625646874309">
        <ele>1357.1099999999999</ele>
        <time>2025-05-04T07:06:12Z</time>
      </trkpt>
      <trkpt lat="45.976253170520067" lon="8.041627071797848">
        <ele>1356.8399999999999</ele>
        <time>2025-05-04T07:06:32Z</time>
      </trkpt>
      <trkpt lat="45.976279405876994" lon="8.041703682392836">
        <ele>1356.55</ele>
        <time>2025-05-04T07:06:53Z</time>
      </trkpt>
      <trkpt lat="45.97635836340487" lon="8.04170778952539">
        <ele>1356.97</ele>
        <time>2025-05-04T07:09:16Z</time>
      </trkpt>
      <trkpt lat="45.976346964016557" lon="8.041772413998842">
        <ele>1358.3</ele>
        <time>2025-05-04T07:09:46Z</time>
      </trkpt>
      <trkpt lat="45.976418545469642" lon="8.041721284389496">
        <ele>1360.3699999999999</ele>
        <time>2025-05-04T07:10:08Z</time>
      </trkpt>
      <trkpt lat="45.97650496289134" lon="8.041659593582153">
        <ele>1361.4400000000001</ele>
        <time>2025-05-04T07:10:24Z</time>
      </trkpt>
      <trkpt lat="45.976489540189505" lon="8.041619695723057">
        <ele>1361.5</ele>
        <time>2025-05-04T07:10:56Z</time>
      </trkpt>
      <trkpt lat="45.976535808295012" lon="8.0415915325284">
        <ele>1362.8800000000001</ele>
        <time>2025-05-04T07:11:16Z</time>
      </trkpt>
      <trkpt lat="45.97662415355444" lon="8.041574601083994">
        <ele>1366.28</ele>
        <time>2025-05-04T07:11:45Z</time>
      </trkpt>
      <trkpt lat="45.976704703643918" lon="8.041618270799518">
        <ele>1370.8800000000001</ele>
        <time>2025-05-04T07:12:17Z</time>
      </trkpt>
      <trkpt lat="45.976726412773132" lon="8.041644673794508">
        <ele>1374.5799999999999</ele>
        <time>2025-05-04T07:13:00Z</time>
      </trkpt>
      <trkpt lat="45.976788187399507" lon="8.041738215833902">
        <ele>1376.4300000000001</ele>
        <time>2025-05-04T07:13:16Z</time>
      </trkpt>
      <trkpt lat="45.976866139099002" lon="8.041768474504352">
        <ele>1378.78</ele>
        <time>2025-05-04T07:13:39Z</time>
      </trkpt>
      <trkpt lat="45.976961357519031" lon="8.041792027652264">
        <ele>1382.49</ele>
        <time>2025-05-04T07:14:02Z</time>
      </trkpt>
      <trkpt lat="45.977024557068944" lon="8.04178599268198">
        <ele>1386.1700000000001</ele>
        <time>2025-05-04T07:14:26Z</time>
      </trkpt>
      <trkpt lat="45.977047942578793" lon="8.041718602180481">
        <ele>1390.3</ele>
        <time>2025-05-04T07:14:55Z</time>
      </trkpt>
      <trkpt lat="45.977116422727704" lon="8.041731007397175">
        <ele>1393.73</ele>
        <time>2025-05-04T07:15:18Z</time>
      </trkpt>
      <trkpt lat="45.977158499881625" lon="8.041809210553765">
        <ele>1396.6700000000001</ele>
        <time>2025-05-04T07:15:39Z</time>
      </trkpt>
      <trkpt lat="45.977214071899652" lon="8.041771240532398">
        <ele>1401.6099999999999</ele>
        <time>2025-05-04T07:16:14Z</time>
      </trkpt>
      <trkpt lat="45.977302165701985" lon="8.04183192551136">
        <ele>1405</ele>
        <time>2025-05-04T07:16:35Z</time>
      </trkpt>
      <trkpt lat="45.977280540391803" lon="8.041779203340411">
        <ele>1407.5699999999999</ele>
        <time>2025-05-04T07:17:02Z</time>
      </trkpt>
      <trkpt lat="45.977340387180448" lon="8.041830332949758">
        <ele>1411.1900000000001</ele>
        <time>2025-05-04T07:17:27Z</time>
      </trkpt>
      <trkpt lat="45.977391013875604" lon="8.041780209168792">
        <ele>1414.4000000000001</ele>
        <time>2025-05-04T07:17:46Z</time>
      </trkpt>
      <trkpt lat="45.977460080757737" lon="8.041724050417543">
        <ele>1417.8800000000001</ele>
        <time>2025-05-04T07:18:12Z</time>
      </trkpt>
      <trkpt lat="45.977459158748388" lon="8.041776353493333">
        <ele>1418.1099999999999</ele>
        <time>2025-05-04T07:18:38Z</time>
      </trkpt>
      <trkpt lat="45.977544821798801" lon="8.041824046522379">
        <ele>1421</ele>
        <time>2025-05-04T07:19:01Z</time>
      </trkpt>
      <trkpt lat="45.977605590596795" lon="8.04177769459784">
        <ele>1424.45</ele>
        <time>2025-05-04T07:19:24Z</time>
      </trkpt>
      <trkpt lat="45.97760877572" lon="8.041616510599852">
        <ele>1428.27</ele>
        <time>2025-05-04T07:19:44Z</time>
      </trkpt>
      <trkpt lat="45.977631909772754" lon="8.041498744860292">
        <ele>1432.2</ele>
        <time>2025-05-04T07:20:05Z</time>
      </trkpt>
      <trkpt lat="45.97768890671432" lon="8.041367903351784">
        <ele>1434.1700000000001</ele>
        <time>2025-05-04T07:20:22Z</time>
      </trkpt>
      <trkpt lat="45.977762248367071" lon="8.04130763746798">
        <ele>1437.8299999999999</ele>
        <time>2025-05-04T07:20:46Z</time>
      </trkpt>
      <trkpt lat="45.977869369089603" lon="8.041270337998867">
        <ele>1442.1099999999999</ele>
        <time>2025-05-04T07:21:11Z</time>
      </trkpt>
      <trkpt lat="45.977967185899615" lon="8.041197080165148">
        <ele>1444.76</ele>
        <time>2025-05-04T07:21:32Z</time>
      </trkpt>
      <trkpt lat="45.978083610534668" lon="8.041116697713733">
        <ele>1445.9100000000001</ele>
        <time>2025-05-04T07:21:53Z</time>
      </trkpt>
      <trkpt lat="45.978177320212126" lon="8.041113093495369">
        <ele>1447.4200000000001</ele>
        <time>2025-05-04T07:22:12Z</time>
      </trkpt>
      <trkpt lat="45.97825082950294" lon="8.041081745177507">
        <ele>1449.6800000000001</ele>
        <time>2025-05-04T07:22:32Z</time>
      </trkpt>
      <trkpt lat="45.978351160883904" lon="8.0410320404917">
        <ele>1451.9300000000001</ele>
        <time>2025-05-04T07:22:47Z</time>
      </trkpt>
      <trkpt lat="45.978326518088579" lon="8.040887117385864">
        <ele>1454.29</ele>
        <time>2025-05-04T07:23:11Z</time>
      </trkpt>
      <trkpt lat="45.978310843929648" lon="8.040767507627606">
        <ele>1457.02</ele>
        <time>2025-05-04T07:23:33Z</time>
      </trkpt>
      <trkpt lat="45.978319142013788" lon="8.040641527622938">
        <ele>1461.0699999999999</ele>
        <time>2025-05-04T07:23:55Z</time>
      </trkpt>
      <trkpt lat="45.978345042094588" lon="8.040510602295399">
        <ele>1463.21</ele>
        <time>2025-05-04T07:24:21Z</time>
      </trkpt>
      <trkpt lat="45.978413186967373" lon="8.040477829053998">
        <ele>1466.75</ele>
        <time>2025-05-04T07:24:42Z</time>
      </trkpt>
      <trkpt lat="45.978462640196085" lon="8.040406331419945">
        <ele>1469.8299999999999</ele>
        <time>2025-05-04T07:25:11Z</time>
      </trkpt>
      <trkpt lat="45.978547548875213" lon="8.040372049435973">
        <ele>1473.9400000000001</ele>
        <time>2025-05-04T07:25:31Z</time>
      </trkpt>
      <trkpt lat="45.978629691526294" lon="8.040322512388229">
        <ele>1477.6600000000001</ele>
        <time>2025-05-04T07:25:55Z</time>
      </trkpt>
      <trkpt lat="45.978711750358343" lon="8.040336929261684">
        <ele>1481.5699999999999</ele>
        <time>2025-05-04T07:26:21Z</time>
      </trkpt>
      <trkpt lat="45.978797664865851" lon="8.040404235944152">
        <ele>1484.1199999999999</ele>
        <time>2025-05-04T07:26:42Z</time>
      </trkpt>
      <trkpt lat="45.978869246318936" lon="8.040390741080046">
        <ele>1487.71</ele>
        <time>2025-05-04T07:27:09Z</time>
      </trkpt>
      <trkpt lat="45.978890787810087" lon="8.040505321696401">
        <ele>1490.48</ele>
        <time>2025-05-04T07:27:32Z</time>
      </trkpt>
      <trkpt lat="45.978948371484876" lon="8.04040071554482">
        <ele>1493.1199999999999</ele>
        <time>2025-05-04T07:27:53Z</time>
      </trkpt>
      <trkpt lat="45.979056917130947" lon="8.040376408025622">
        <ele>1496.54</ele>
        <time>2025-05-04T07:28:15Z</time>
      </trkpt>
      <trkpt lat="45.979124559089541" lon="8.040448911488056">
        <ele>1499.8800000000001</ele>
        <time>2025-05-04T07:28:37Z</time>
      </trkpt>
      <trkpt lat="45.979131013154984" lon="8.040557960048318">
        <ele>1503.48</ele>
        <time>2025-05-04T07:29:04Z</time>
      </trkpt>
      <trkpt lat="45.97913721576333" lon="8.040684778243303">
        <ele>1506.9100000000001</ele>
        <time>2025-05-04T07:29:28Z</time>
      </trkpt>
      <trkpt lat="45.979232685640454" lon="8.040724508464336">
        <ele>1510.3699999999999</ele>
        <time>2025-05-04T07:29:48Z</time>
      </trkpt>
      <trkpt lat="45.979325557127595" lon="8.040793910622597">
        <ele>1513.3900000000001</ele>
        <time>2025-05-04T07:30:10Z</time>
      </trkpt>
      <trkpt lat="45.979387583211064" lon="8.040850907564163">
        <ele>1516.9400000000001</ele>
        <time>2025-05-04T07:30:35Z</time>
      </trkpt>
      <trkpt lat="45.979462517425418" lon="8.040834227576852">
        <ele>1519.98</ele>
        <time>2025-05-04T07:30:56Z</time>
      </trkpt>
      <trkpt lat="45.979527225717902" lon="8.040924584493041">
        <ele>1522.9100000000001</ele>
        <time>2025-05-04T07:31:18Z</time>
      </trkpt>
      <trkpt lat="45.97958137281239" lon="8.040908072143793">
        <ele>1525.72</ele>
        <time>2025-05-04T07:32:05Z</time>
      </trkpt>
      <trkpt lat="45.979630909860134" lon="8.040972696617246">
        <ele>1530.0799999999999</ele>
        <time>2025-05-04T07:32:25Z</time>
      </trkpt>
      <trkpt lat="45.979720260947943" lon="8.041026424616575">
        <ele>1533.96</ele>
        <time>2025-05-04T07:32:46Z</time>
      </trkpt>
      <trkpt lat="45.979785388335586" lon="8.041081409901381">
        <ele>1538.74</ele>
        <time>2025-05-04T07:33:09Z</time>
      </trkpt>
      <trkpt lat="45.979866860434413" lon="8.041128683835268">
        <ele>1543.4000000000001</ele>
        <time>2025-05-04T07:33:34Z</time>
      </trkpt>
      <trkpt lat="45.979932826012373" lon="8.041060455143452">
        <ele>1545.8900000000001</ele>
        <time>2025-05-04T07:33:53Z</time>
      </trkpt>
      <trkpt lat="45.979993594810367" lon="8.04097780957818">
        <ele>1549.3699999999999</ele>
        <time>2025-05-04T07:34:17Z</time>
      </trkpt>
      <trkpt lat="45.980020249262452" lon="8.040883513167501">
        <ele>1549.76</ele>
        <time>2025-05-04T07:34:48Z</time>
      </trkpt>
      <trkpt lat="45.980021674185991" lon="8.04088301025331">
        <ele>1551.0699999999999</ele>
        <time>2025-05-04T07:40:34Z</time>
      </trkpt>
      <trkpt lat="45.980073977261782" lon="8.040910670533776">
        <ele>1553.45</ele>
        <time>2025-05-04T07:43:11Z</time>
      </trkpt>
      <trkpt lat="45.980103313922882" lon="8.041022820398212">
        <ele>1556.0699999999999</ele>
        <time>2025-05-04T07:43:49Z</time>
      </trkpt>
      <trkpt lat="45.980151426047087" lon="8.041145112365484">
        <ele>1559.24</ele>
        <time>2025-05-04T07:44:16Z</time>
      </trkpt>
      <trkpt lat="45.980142625048757" lon="8.041291711851955">
        <ele>1562.49</ele>
        <time>2025-05-04T07:44:39Z</time>
      </trkpt>
      <trkpt lat="45.980190485715866" lon="8.041386846452951">
        <ele>1565.98</ele>
        <time>2025-05-04T07:45:01Z</time>
      </trkpt>
      <trkpt lat="45.980266928672791" lon="8.041463037952781">
        <ele>1569.01</ele>
        <time>2025-05-04T07:45:21Z</time>
      </trkpt>
      <trkpt lat="45.980313364416361" lon="8.041506372392178">
        <ele>1572.9100000000001</ele>
        <time>2025-05-04T07:45:45Z</time>
      </trkpt>
      <trkpt lat="45.980391232296824" lon="8.041485836729407">
        <ele>1577.1700000000001</ele>
        <time>2025-05-04T07:46:15Z</time>
      </trkpt>
      <trkpt lat="45.980467926710844" lon="8.041429929435253">
        <ele>1581.6500000000001</ele>
        <time>2025-05-04T07:46:41Z</time>
      </trkpt>
      <trkpt lat="45.980539843440056" lon="8.041317695751786">
        <ele>1584.05</ele>
        <time>2025-05-04T07:47:03Z</time>
      </trkpt>
      <trkpt lat="45.98060161806643" lon="8.041250305250287">
        <ele>1588.3299999999999</ele>
        <time>2025-05-04T07:47:30Z</time>
      </trkpt>
      <trkpt lat="45.980654591694474" lon="8.041159529238939">
        <ele>1591.9400000000001</ele>
        <time>2025-05-04T07:47:55Z</time>
      </trkpt>
      <trkpt lat="45.980696082115173" lon="8.041286682710052">
        <ele>1595</ele>
        <time>2025-05-04T07:48:17Z</time>
      </trkpt>
      <trkpt lat="45.980726508423686" lon="8.04139656946063">
        <ele>1598.55</ele>
        <time>2025-05-04T07:48:42Z</time>
      </trkpt>
      <trkpt lat="45.980756096541882" lon="8.041535541415215">
        <ele>1602.24</ele>
        <time>2025-05-04T07:49:04Z</time>
      </trkpt>
      <trkpt lat="45.980734638869762" lon="8.041688092052937">
        <ele>1603.6800000000001</ele>
        <time>2025-05-04T07:49:20Z</time>
      </trkpt>
      <trkpt lat="45.980721227824688" lon="8.041842402890325">
        <ele>1606.6400000000001</ele>
        <time>2025-05-04T07:49:41Z</time>
      </trkpt>
      <trkpt lat="45.980693651363254" lon="8.042017165571451">
        <ele>1608.6600000000001</ele>
        <time>2025-05-04T07:49:57Z</time>
      </trkpt>
      <trkpt lat="45.98066121339798" lon="8.042203914374113">
        <ele>1611.24</ele>
        <time>2025-05-04T07:50:15Z</time>
      </trkpt>
      <trkpt lat="45.980668002739549" lon="8.042349759489298">
        <ele>1614.04</ele>
        <time>2025-05-04T07:50:38Z</time>
      </trkpt>
      <trkpt lat="45.980682671070099" lon="8.042498705908656">
        <ele>1617.99</ele>
        <time>2025-05-04T07:51:04Z</time>
      </trkpt>
      <trkpt lat="45.980661129578948" lon="8.042649496346712">
        <ele>1620.3599999999999</ele>
        <time>2025-05-04T07:51:26Z</time>
      </trkpt>
      <trkpt lat="45.980601534247398" lon="8.042775141075254">
        <ele>1621.98</ele>
        <time>2025-05-04T07:51:44Z</time>
      </trkpt>
      <trkpt lat="45.98055568523705" lon="8.04289273917675">
        <ele>1624.3199999999999</ele>
        <time>2025-05-04T07:52:02Z</time>
      </trkpt>
      <trkpt lat="45.980548141524196" lon="8.043048642575741">
        <ele>1627.53</ele>
        <time>2025-05-04T07:52:27Z</time>
      </trkpt>
      <trkpt lat="45.980530204251409" lon="8.043201947584748">
        <ele>1631.05</ele>
        <time>2025-05-04T07:52:55Z</time>
      </trkpt>
      <trkpt lat="45.980497933924198" lon="8.043307391926646">
        <ele>1634.26</ele>
        <time>2025-05-04T07:53:18Z</time>
      </trkpt>
      <trkpt lat="45.980489468201995" lon="8.043443597853184">
        <ele>1637.48</ele>
        <time>2025-05-04T07:53:43Z</time>
      </trkpt>
      <trkpt lat="45.980493323877454" lon="8.043565638363361">
        <ele>1641.3399999999999</ele>
        <time>2025-05-04T07:54:07Z</time>
      </trkpt>
      <trkpt lat="45.980528444051743" lon="8.043689941987395">
        <ele>1644.23</ele>
        <time>2025-05-04T07:54:27Z</time>
      </trkpt>
      <trkpt lat="45.980542693287134" lon="8.043798236176372">
        <ele>1647.3099999999999</ele>
        <time>2025-05-04T07:54:51Z</time>
      </trkpt>
      <trkpt lat="45.980607820674777" lon="8.043711734935641">
        <ele>1651.26</ele>
        <time>2025-05-04T07:55:19Z</time>
      </trkpt>
      <trkpt lat="45.98068661056459" lon="8.043654402717948">
        <ele>1654.0599999999999</ele>
        <time>2025-05-04T07:55:43Z</time>
      </trkpt>
      <trkpt lat="45.980742266401649" lon="8.043689103797078">
        <ele>1657.4000000000001</ele>
        <time>2025-05-04T07:56:11Z</time>
      </trkpt>
      <trkpt lat="45.980804124847054" lon="8.043668484315276">
        <ele>1660.9300000000001</ele>
        <time>2025-05-04T07:57:09Z</time>
      </trkpt>
      <trkpt lat="45.98090604878962" lon="8.043637303635478">
        <ele>1665.3199999999999</ele>
        <time>2025-05-04T07:57:27Z</time>
      </trkpt>
      <trkpt lat="45.980958938598633" lon="8.043674603104591">
        <ele>1670.01</ele>
        <time>2025-05-04T07:57:49Z</time>
      </trkpt>
      <trkpt lat="45.98097980953753" lon="8.043766301125288">
        <ele>1673.5599999999999</ele>
        <time>2025-05-04T07:58:11Z</time>
      </trkpt>
      <trkpt lat="45.981042254716158" lon="8.043746771290898">
        <ele>1675.78</ele>
        <time>2025-05-04T07:58:43Z</time>
      </trkpt>
      <trkpt lat="45.981112830340862" lon="8.043746016919613">
        <ele>1678.04</ele>
        <time>2025-05-04T07:59:09Z</time>
      </trkpt>
      <trkpt lat="45.981198409572244" lon="8.043750040233135">
        <ele>1682.4200000000001</ele>
        <time>2025-05-04T07:59:26Z</time>
      </trkpt>
      <trkpt lat="45.981286587193608" lon="8.043710812926292">
        <ele>1685.5599999999999</ele>
        <time>2025-05-04T07:59:43Z</time>
      </trkpt>
      <trkpt lat="45.98136093467474" lon="8.043627580627799">
        <ele>1689.1500000000001</ele>
        <time>2025-05-04T08:00:05Z</time>
      </trkpt>
      <trkpt lat="45.981459086760879" lon="8.043608302250505">
        <ele>1692.71</ele>
        <time>2025-05-04T08:00:25Z</time>
      </trkpt>
      <trkpt lat="45.981543743982911" lon="8.043562285602093">
        <ele>1695.77</ele>
        <time>2025-05-04T08:00:45Z</time>
      </trkpt>
      <trkpt lat="45.981620270758867" lon="8.043454326689243">
        <ele>1698.51</ele>
        <time>2025-05-04T08:01:04Z</time>
      </trkpt>
      <trkpt lat="45.981728062033653" lon="8.043392552062869">
        <ele>1701.6400000000001</ele>
        <time>2025-05-04T08:01:24Z</time>
      </trkpt>
      <trkpt lat="45.981801738962531" lon="8.043394396081567">
        <ele>1704.5999999999999</ele>
        <time>2025-05-04T08:01:44Z</time>
      </trkpt>
      <trkpt lat="45.981898298487067" lon="8.043360617011786">
        <ele>1707.1600000000001</ele>
        <time>2025-05-04T08:02:01Z</time>
      </trkpt>
      <trkpt lat="45.981959654018283" lon="8.043370004743338">
        <ele>1709.5699999999999</ele>
        <time>2025-05-04T08:02:16Z</time>
      </trkpt>
      <trkpt lat="45.982043137773871" lon="8.043377045542002">
        <ele>1713.8099999999999</ele>
        <time>2025-05-04T08:02:39Z</time>
      </trkpt>
      <trkpt lat="45.982137601822615" lon="8.043290292844176">
        <ele>1717.0699999999999</ele>
        <time>2025-05-04T08:03:01Z</time>
      </trkpt>
      <trkpt lat="45.98223022185266" lon="8.043225836008787">
        <ele>1718.3800000000001</ele>
        <time>2025-05-04T08:03:12Z</time>
      </trkpt>
      <trkpt lat="45.982301132753491" lon="8.043165067210794">
        <ele>1718.97</ele>
        <time>2025-05-04T08:03:23Z</time>
      </trkpt>
      <trkpt lat="45.982345389202237" lon="8.043141597881913">
        <ele>1720.1500000000001</ele>
        <time>2025-05-04T08:03:31Z</time>
      </trkpt>
      <trkpt lat="45.982420658692718" lon="8.043116368353367">
        <ele>1722.47</ele>
        <time>2025-05-04T08:03:45Z</time>
      </trkpt>
      <trkpt lat="45.982524259015918" lon="8.043081248179078">
        <ele>1726.4000000000001</ele>
        <time>2025-05-04T08:04:07Z</time>
      </trkpt>
      <trkpt lat="45.98259181715548" lon="8.043004805222154">
        <ele>1728.51</ele>
        <time>2025-05-04T08:04:22Z</time>
      </trkpt>
      <trkpt lat="45.98268661648035" lon="8.042967757210136">
        <ele>1732.04</ele>
        <time>2025-05-04T08:04:41Z</time>
      </trkpt>
      <trkpt lat="45.98276574164629" lon="8.042933391407132">
        <ele>1735.3900000000001</ele>
        <time>2025-05-04T08:05:03Z</time>
      </trkpt>
      <trkpt lat="45.9828498121351" lon="8.04286147467792">
        <ele>1738.3299999999999</ele>
        <time>2025-05-04T08:05:24Z</time>
      </trkpt>
      <trkpt lat="45.982932960614562" lon="8.042805483564735">
        <ele>1741.21</ele>
        <time>2025-05-04T08:05:45Z</time>
      </trkpt>
      <trkpt lat="45.983025580644608" lon="8.042801627889276">
        <ele>1744.8299999999999</ele>
        <time>2025-05-04T08:06:11Z</time>
      </trkpt>
      <trkpt lat="45.983122056350112" lon="8.042782349511981">
        <ele>1748.74</ele>
        <time>2025-05-04T08:06:33Z</time>
      </trkpt>
      <trkpt lat="45.983219286426902" lon="8.042820235714316">
        <ele>1752.29</ele>
        <time>2025-05-04T08:06:57Z</time>
      </trkpt>
      <trkpt lat="45.983309056609869" lon="8.042828366160393">
        <ele>1754.6900000000001</ele>
        <time>2025-05-04T08:07:26Z</time>
      </trkpt>
      <trkpt lat="45.983318444341421" lon="8.042812943458557">
        <ele>1755.1900000000001</ele>
        <time>2025-05-04T08:08:44Z</time>
      </trkpt>
      <trkpt lat="45.983298746868968" lon="8.04282090626657">
        <ele>1756.5</ele>
        <time>2025-05-04T08:10:25Z</time>
      </trkpt>
      <trkpt lat="45.983353396877646" lon="8.042832305654883">
        <ele>1756.45</ele>
        <time>2025-05-04T08:11:19Z</time>
      </trkpt>
      <trkpt lat="45.983439814299345" lon="8.04288393817842">
        <ele>1758.77</ele>
        <time>2025-05-04T08:11:41Z</time>
      </trkpt>
      <trkpt lat="45.983507204800844" lon="8.042894247919321">
        <ele>1761.95</ele>
        <time>2025-05-04T08:12:03Z</time>
      </trkpt>
      <trkpt lat="45.983582558110356" lon="8.042927188798785">
        <ele>1765.1099999999999</ele>
        <time>2025-05-04T08:12:26Z</time>
      </trkpt>
      <trkpt lat="45.983674675226212" lon="8.042934481054544">
        <ele>1766.52</ele>
        <time>2025-05-04T08:12:41Z</time>
      </trkpt>
      <trkpt lat="45.983777940273285" lon="8.042886201292276">
        <ele>1767.6600000000001</ele>
        <time>2025-05-04T08:12:54Z</time>
      </trkpt>
      <trkpt lat="45.983869889751077" lon="8.042889386415482">
        <ele>1770.03</ele>
        <time>2025-05-04T08:13:12Z</time>
      </trkpt>
      <trkpt lat="45.983940130099654" lon="8.042820654809475">
        <ele>1772.29</ele>
        <time>2025-05-04T08:13:29Z</time>
      </trkpt>
      <trkpt lat="45.984012968838215" lon="8.042814284563065">
        <ele>1774.2</ele>
        <time>2025-05-04T08:13:43Z</time>
      </trkpt>
      <trkpt lat="45.984039288014174" lon="8.042871030047536">
        <ele>1776.95</ele>
        <time>2025-05-04T08:14:06Z</time>
      </trkpt>
      <trkpt lat="45.984110031276941" lon="8.042906820774078">
        <ele>1780.8099999999999</ele>
        <time>2025-05-04T08:14:36Z</time>
      </trkpt>
      <trkpt lat="45.984209273010492" lon="8.042888212949038">
        <ele>1783.9400000000001</ele>
        <time>2025-05-04T08:14:56Z</time>
      </trkpt>
      <trkpt lat="45.984308933839202" lon="8.042868850752711">
        <ele>1787.04</ele>
        <time>2025-05-04T08:15:19Z</time>
      </trkpt>
      <trkpt lat="45.984397698193789" lon="8.042880836874247">
        <ele>1790.28</ele>
        <time>2025-05-04T08:15:43Z</time>
      </trkpt>
      <trkpt lat="45.984492748975754" lon="8.04289860650897">
        <ele>1792.27</ele>
        <time>2025-05-04T08:16:02Z</time>
      </trkpt>
      <trkpt lat="45.9845888055861" lon="8.042908161878586">
        <ele>1794.0799999999999</ele>
        <time>2025-05-04T08:16:19Z</time>
      </trkpt>
      <trkpt lat="45.984680922701955" lon="8.042950071394444">
        <ele>1795.8299999999999</ele>
        <time>2025-05-04T08:16:34Z</time>
      </trkpt>
      <trkpt lat="45.984773878008127" lon="8.04301243275404">
        <ele>1798.01</ele>
        <time>2025-05-04T08:16:52Z</time>
      </trkpt>
      <trkpt lat="45.984889548271894" lon="8.043021904304624">
        <ele>1800.3</ele>
        <time>2025-05-04T08:17:09Z</time>
      </trkpt>
      <trkpt lat="45.984979318454862" lon="8.043002542108297">
        <ele>1802.4000000000001</ele>
        <time>2025-05-04T08:17:26Z</time>
      </trkpt>
      <trkpt lat="45.985063221305609" lon="8.042985526844859">
        <ele>1805.55</ele>
        <time>2025-05-04T08:17:47Z</time>
      </trkpt>
      <trkpt lat="45.985093396157026" lon="8.04299583658576">
        <ele>1807.6300000000001</ele>
        <time>2025-05-04T08:18:02Z</time>
      </trkpt>
      <trkpt lat="45.985191129148006" lon="8.043026430532336">
        <ele>1811.03</ele>
        <time>2025-05-04T08:18:30Z</time>
      </trkpt>
      <trkpt lat="45.985285174101591" lon="8.042986951768398">
        <ele>1813.8</ele>
        <time>2025-05-04T08:18:51Z</time>
      </trkpt>
      <trkpt lat="45.985365388914943" lon="8.042970607057214">
        <ele>1814.9100000000001</ele>
        <time>2025-05-04T08:19:08Z</time>
      </trkpt>
      <trkpt lat="45.985384080559015" lon="8.043029950931668">
        <ele>1819.28</ele>
        <time>2025-05-04T08:19:38Z</time>
      </trkpt>
      <trkpt lat="45.985396737232804" lon="8.043100610375404">
        <ele>1823.3599999999999</ele>
        <time>2025-05-04T08:20:02Z</time>
      </trkpt>
      <trkpt lat="45.985422553494573" lon="8.043163809925318">
        <ele>1826.53</ele>
        <time>2025-05-04T08:20:25Z</time>
      </trkpt>
      <trkpt lat="45.985413333401084" lon="8.043271349743009">
        <ele>1830.5799999999999</ele>
        <time>2025-05-04T08:20:54Z</time>
      </trkpt>
      <trkpt lat="45.985408807173371" lon="8.043375369161367">
        <ele>1833.8</ele>
        <time>2025-05-04T08:21:18Z</time>
      </trkpt>
      <trkpt lat="45.98548105917871" lon="8.043409734964371">
        <ele>1837.3699999999999</ele>
        <time>2025-05-04T08:21:43Z</time>
      </trkpt>
      <trkpt lat="45.985562447458506" lon="8.04339992813766">
        <ele>1839.8499999999999</ele>
        <time>2025-05-04T08:22:19Z</time>
      </trkpt>
      <trkpt lat="45.985644841566682" lon="8.043403113260865">
        <ele>1841.9100000000001</ele>
        <time>2025-05-04T08:23:00Z</time>
      </trkpt>
      <trkpt lat="45.985721535980701" lon="8.043364640325308">
        <ele>1844.74</ele>
        <time>2025-05-04T08:23:24Z</time>
      </trkpt>
      <trkpt lat="45.985801164060831" lon="8.043343685567379">
        <ele>1848.23</ele>
        <time>2025-05-04T08:23:53Z</time>
      </trkpt>
      <trkpt lat="45.985782975330949" lon="8.043471341952682">
        <ele>1849.8499999999999</ele>
        <time>2025-05-04T08:24:11Z</time>
      </trkpt>
      <trkpt lat="45.985806109383702" lon="8.043557843193412">
        <ele>1852.27</ele>
        <time>2025-05-04T08:24:40Z</time>
      </trkpt>
      <trkpt lat="45.985787669196725" lon="8.043662533164024">
        <ele>1855.0599999999999</ele>
        <time>2025-05-04T08:25:00Z</time>
      </trkpt>
      <trkpt lat="45.985714998096228" lon="8.04376345127821">
        <ele>1857.26</ele>
        <time>2025-05-04T08:25:19Z</time>
      </trkpt>
      <trkpt lat="45.985692115500569" lon="8.043853556737304">
        <ele>1860.6500000000001</ele>
        <time>2025-05-04T08:25:40Z</time>
      </trkpt>
      <trkpt lat="45.985628413036466" lon="8.043956905603409">
        <ele>1863.9000000000001</ele>
        <time>2025-05-04T08:26:02Z</time>
      </trkpt>
      <trkpt lat="45.985646434128284" lon="8.044027481228113">
        <ele>1867.1300000000001</ele>
        <time>2025-05-04T08:26:29Z</time>
      </trkpt>
      <trkpt lat="45.985609050840139" lon="8.044129740446806">
        <ele>1869.7</ele>
        <time>2025-05-04T08:26:54Z</time>
      </trkpt>
      <trkpt lat="45.985674429684877" lon="8.044194197282195">
        <ele>1873.1500000000001</ele>
        <time>2025-05-04T08:27:23Z</time>
      </trkpt>
      <trkpt lat="45.98572488874197" lon="8.044244572520256">
        <ele>1877.2</ele>
        <time>2025-05-04T08:27:53Z</time>
      </trkpt>
      <trkpt lat="45.985721871256828" lon="8.044342724606395">
        <ele>1880.53</ele>
        <time>2025-05-04T08:28:18Z</time>
      </trkpt>
      <trkpt lat="45.985763529315591" lon="8.044411707669497">
        <ele>1883.6900000000001</ele>
        <time>2025-05-04T08:28:45Z</time>
      </trkpt>
      <trkpt lat="45.985852712765336" lon="8.044380946084857">
        <ele>1886.79</ele>
        <time>2025-05-04T08:29:08Z</time>
      </trkpt>
      <trkpt lat="45.985888671129942" lon="8.044411456212401">
        <ele>1889.76</ele>
        <time>2025-05-04T08:29:36Z</time>
      </trkpt>
      <trkpt lat="45.985878529027104" lon="8.04452670738101">
        <ele>1892.9400000000001</ele>
        <time>2025-05-04T08:30:01Z</time>
      </trkpt>
      <trkpt lat="45.985949272289872" lon="8.044455545023084">
        <ele>1895.3399999999999</ele>
        <time>2025-05-04T08:30:28Z</time>
      </trkpt>
      <trkpt lat="45.985931502655149" lon="8.044576998800039">
        <ele>1899.6500000000001</ele>
        <time>2025-05-04T08:30:55Z</time>
      </trkpt>
      <trkpt lat="45.985939549282193" lon="8.044659644365311">
        <ele>1902.5</ele>
        <time>2025-05-04T08:31:23Z</time>
      </trkpt>
      <trkpt lat="45.985965700820088" lon="8.044708762317896">
        <ele>1906.28</ele>
        <time>2025-05-04T08:31:46Z</time>
      </trkpt>
      <trkpt lat="45.985980620607734" lon="8.044786462560296">
        <ele>1910.1099999999999</ele>
        <time>2025-05-04T08:32:16Z</time>
      </trkpt>
      <trkpt lat="45.986039293929935" lon="8.044842453673482">
        <ele>1913.71</ele>
        <time>2025-05-04T08:33:04Z</time>
      </trkpt>
      <trkpt lat="45.986128645017743" lon="8.044900791719556">
        <ele>1917.78</ele>
        <time>2025-05-04T08:33:29Z</time>
      </trkpt>
      <trkpt lat="45.986140044406056" lon="8.044991483911872">
        <ele>1920.8699999999999</ele>
        <time>2025-05-04T08:33:50Z</time>
      </trkpt>
      <trkpt lat="45.98618664778769" lon="8.045052923262119">
        <ele>1924.6400000000001</ele>
        <time>2025-05-04T08:34:22Z</time>
      </trkpt>
      <trkpt lat="45.986257055774331" lon="8.045126851648092">
        <ele>1928.3699999999999</ele>
        <time>2025-05-04T08:34:54Z</time>
      </trkpt>
      <trkpt lat="45.98633567802608" lon="8.045104304328561">
        <ele>1930.97</ele>
        <time>2025-05-04T08:35:16Z</time>
      </trkpt>
      <trkpt lat="45.986374570056796" lon="8.045198181644082">
        <ele>1934.53</ele>
        <time>2025-05-04T08:35:40Z</time>
      </trkpt>
      <trkpt lat="45.986419916152954" lon="8.045279737561941">
        <ele>1937.98</ele>
        <time>2025-05-04T08:36:11Z</time>
      </trkpt>
      <trkpt lat="45.986451180651784" lon="8.045348217710853">
        <ele>1941.23</ele>
        <time>2025-05-04T08:36:35Z</time>
      </trkpt>
      <trkpt lat="45.986549835652113" lon="8.045319132506847">
        <ele>1944.8900000000001</ele>
        <time>2025-05-04T08:37:10Z</time>
      </trkpt>
      <trkpt lat="45.986559391021729" lon="8.04545022547245">
        <ele>1947.6300000000001</ele>
        <time>2025-05-04T08:37:31Z</time>
      </trkpt>
      <trkpt lat="45.986519493162632" lon="8.045562040060759">
        <ele>1950.8499999999999</ele>
        <time>2025-05-04T08:37:55Z</time>
      </trkpt>
      <trkpt lat="45.986532233655453" lon="8.045633789151907">
        <ele>1953.3499999999999</ele>
        <time>2025-05-04T08:38:22Z</time>
      </trkpt>
      <trkpt lat="45.986592834815383" lon="8.045640578493476">
        <ele>1955.9100000000001</ele>
        <time>2025-05-04T08:38:44Z</time>
      </trkpt>
      <trkpt lat="45.986658046022058" lon="8.045646026730537">
        <ele>1958.48</ele>
        <time>2025-05-04T08:39:16Z</time>
      </trkpt>
      <trkpt lat="45.986718395724893" lon="8.045674106106162">
        <ele>1961.8800000000001</ele>
        <time>2025-05-04T08:39:33Z</time>
      </trkpt>
      <trkpt lat="45.986810261383653" lon="8.045653738081455">
        <ele>1964.3499999999999</ele>
        <time>2025-05-04T08:39:56Z</time>
      </trkpt>
      <trkpt lat="45.986826438456774" lon="8.045725570991635">
        <ele>1967.04</ele>
        <time>2025-05-04T08:40:20Z</time>
      </trkpt>
      <trkpt lat="45.986785031855106" lon="8.045831937342882">
        <ele>1968.77</ele>
        <time>2025-05-04T08:40:45Z</time>
      </trkpt>
      <trkpt lat="45.986861139535904" lon="8.045839816331863">
        <ele>1972.5799999999999</ele>
        <time>2025-05-04T08:41:08Z</time>
      </trkpt>
      <trkpt lat="45.986834149807692" lon="8.045978201553226">
        <ele>1975.6300000000001</ele>
        <time>2025-05-04T08:42:04Z</time>
      </trkpt>
      <trkpt lat="45.986849069595337" lon="8.046107701957226">
        <ele>1979.8399999999999</ele>
        <time>2025-05-04T08:42:17Z</time>
      </trkpt>
      <trkpt lat="45.986904054880142" lon="8.046205686405301">
        <ele>1983.2</ele>
        <time>2025-05-04T08:42:41Z</time>
      </trkpt>
      <trkpt lat="45.986956441774964" lon="8.046298557892442">
        <ele>1985.78</ele>
        <time>2025-05-04T08:43:43Z</time>
      </trkpt>
      <trkpt lat="45.986969266086817" lon="8.046427723020315">
        <ele>1986.8</ele>
        <time>2025-05-04T08:43:55Z</time>
      </trkpt>
      <trkpt lat="45.986976223066449" lon="8.046432165428996">
        <ele>1991.4100000000001</ele>
        <time>2025-05-04T08:59:53Z</time>
      </trkpt>
      <trkpt lat="45.986970691010356" lon="8.046431662514806">
        <ele>1991.3699999999999</ele>
        <time>2025-05-04T09:00:16Z</time>
      </trkpt>
      <trkpt lat="45.986977061256766" lon="8.046458484604955">
        <ele>1991.5799999999999</ele>
        <time>2025-05-04T09:01:10Z</time>
      </trkpt>
      <trkpt lat="45.986970439553261" lon="8.046460244804621">
        <ele>1991.8499999999999</ele>
        <time>2025-05-04T09:02:58Z</time>
      </trkpt>
      <trkpt lat="45.986998351290822" lon="8.046501316130161">
        <ele>1992.8299999999999</ele>
        <time>2025-05-04T09:04:13Z</time>
      </trkpt>
      <trkpt lat="45.9870685916394" lon="8.046557223424316">
        <ele>1994.23</ele>
        <time>2025-05-04T09:04:25Z</time>
      </trkpt>
      <trkpt lat="45.987135646864772" lon="8.046642551198602">
        <ele>1994.3099999999999</ele>
        <time>2025-05-04T09:04:34Z</time>
      </trkpt>
      <trkpt lat="45.987221896648407" lon="8.046679431572557">
        <ele>1993.96</ele>
        <time>2025-05-04T09:04:45Z</time>
      </trkpt>
      <trkpt lat="45.987250730395317" lon="8.046776745468378">
        <ele>1991.6600000000001</ele>
        <time>2025-05-04T09:04:57Z</time>
      </trkpt>
      <trkpt lat="45.987332789227366" lon="8.046856205910444">
        <ele>1990.3800000000001</ele>
        <time>2025-05-04T09:05:07Z</time>
      </trkpt>
      <trkpt lat="45.987310912460089" lon="8.046972462907434">
        <ele>1988.21</ele>
        <time>2025-05-04T09:05:18Z</time>
      </trkpt>
      <trkpt lat="45.987385595217347" lon="8.047049576416612">
        <ele>1986.6800000000001</ele>
        <time>2025-05-04T09:05:28Z</time>
      </trkpt>
      <trkpt lat="45.987442256882787" lon="8.04715015925467">
        <ele>1984.45</ele>
        <time>2025-05-04T09:05:38Z</time>
      </trkpt>
      <trkpt lat="45.987476287409663" lon="8.047270691022277">
        <ele>1981.6800000000001</ele>
        <time>2025-05-04T09:05:51Z</time>
      </trkpt>
      <trkpt lat="45.987558094784617" lon="8.047333052381873">
        <ele>1979.5</ele>
        <time>2025-05-04T09:06:02Z</time>
      </trkpt>
      <trkpt lat="45.987635962665081" lon="8.047391977161169">
        <ele>1978.1400000000001</ele>
        <time>2025-05-04T09:06:11Z</time>
      </trkpt>
      <trkpt lat="45.987668987363577" lon="8.047500774264336">
        <ele>1975.76</ele>
        <time>2025-05-04T09:06:28Z</time>
      </trkpt>
      <trkpt lat="45.987728079780936" lon="8.047592639923096">
        <ele>1973.1500000000001</ele>
        <time>2025-05-04T09:06:41Z</time>
      </trkpt>
      <trkpt lat="45.987790441140532" lon="8.047687942162156">
        <ele>1971.1800000000001</ele>
        <time>2025-05-04T09:06:53Z</time>
      </trkpt>
      <trkpt lat="45.987856071442366" lon="8.047782238572836">
        <ele>1969.27</ele>
        <time>2025-05-04T09:07:03Z</time>
      </trkpt>
      <trkpt lat="45.987934023141861" lon="8.047847533598542">
        <ele>1969.1600000000001</ele>
        <time>2025-05-04T09:07:14Z</time>
      </trkpt>
      <trkpt lat="45.987924132496119" lon="8.047979967668653">
        <ele>1968.1900000000001</ele>
        <time>2025-05-04T09:07:26Z</time>
      </trkpt>
      <trkpt lat="45.987928155809641" lon="8.048099493607879">
        <ele>1971.27</ele>
        <time>2025-05-04T09:07:43Z</time>
      </trkpt>
      <trkpt lat="45.987942740321159" lon="8.048227401450276">
        <ele>1973.1600000000001</ele>
        <time>2025-05-04T09:07:56Z</time>
      </trkpt>
      <trkpt lat="45.987996719777584" lon="8.048329157754779">
        <ele>1974.71</ele>
        <time>2025-05-04T09:08:08Z</time>
      </trkpt>
      <trkpt lat="45.988009627908468" lon="8.048458155244589">
        <ele>1976.6800000000001</ele>
        <time>2025-05-04T09:08:23Z</time>
      </trkpt>
      <trkpt lat="45.988031839951873" lon="8.048583129420877">
        <ele>1978.1300000000001</ele>
        <time>2025-05-04T09:08:36Z</time>
      </trkpt>
      <trkpt lat="45.988048519939184" lon="8.04870592430234">
        <ele>1979.8499999999999</ele>
        <time>2025-05-04T09:08:52Z</time>
      </trkpt>
      <trkpt lat="45.988081376999617" lon="8.048836179077625">
        <ele>1981.3299999999999</ele>
        <time>2025-05-04T09:09:07Z</time>
      </trkpt>
      <trkpt lat="45.988095626235008" lon="8.048968026414514">
        <ele>1982.8900000000001</ele>
        <time>2025-05-04T09:09:24Z</time>
      </trkpt>
      <trkpt lat="45.988121023401618" lon="8.049094760790467">
        <ele>1984.2</ele>
        <time>2025-05-04T09:09:42Z</time>
      </trkpt>
      <trkpt lat="45.988120185211301" lon="8.049226189032197">
        <ele>1987.03</ele>
        <time>2025-05-04T09:10:02Z</time>
      </trkpt>
      <trkpt lat="45.988140217959881" lon="8.049314031377435">
        <ele>1989.52</ele>
        <time>2025-05-04T09:10:57Z</time>
      </trkpt>
      <trkpt lat="45.988125717267394" lon="8.049444789066911">
        <ele>1989.5799999999999</ele>
        <time>2025-05-04T09:11:07Z</time>
      </trkpt>
      <trkpt lat="45.988088166341186" lon="8.049567919224501">
        <ele>1988.48</ele>
        <time>2025-05-04T09:11:16Z</time>
      </trkpt>
      <trkpt lat="45.98806444555521" lon="8.049707477912307">
        <ele>1987.8299999999999</ele>
        <time>2025-05-04T09:11:26Z</time>
      </trkpt>
      <trkpt lat="45.988070564344525" lon="8.049836223945022">
        <ele>1987.75</ele>
        <time>2025-05-04T09:11:37Z</time>
      </trkpt>
      <trkpt lat="45.988080622628331" lon="8.04999589920044">
        <ele>1988.4000000000001</ele>
        <time>2025-05-04T09:11:54Z</time>
      </trkpt>
      <trkpt lat="45.988067798316479" lon="8.050127578899264">
        <ele>1988.1700000000001</ele>
        <time>2025-05-04T09:12:05Z</time>
      </trkpt>
      <trkpt lat="45.988101158291101" lon="8.050262276083231">
        <ele>1988.6099999999999</ele>
        <time>2025-05-04T09:12:19Z</time>
      </trkpt>
      <trkpt lat="45.98807274363935" lon="8.050393871963024">
        <ele>1986.5699999999999</ele>
        <time>2025-05-04T09:12:32Z</time>
      </trkpt>
      <trkpt lat="45.98807224072516" lon="8.050525970757008">
        <ele>1986.05</ele>
        <time>2025-05-04T09:12:43Z</time>
      </trkpt>
      <trkpt lat="45.988072408363223" lon="8.050657147541642">
        <ele>1984.6600000000001</ele>
        <time>2025-05-04T09:12:53Z</time>
      </trkpt>
      <trkpt lat="45.988118927925825" lon="8.05077382363379">
        <ele>1988.3</ele>
        <time>2025-05-04T09:13:13Z</time>
      </trkpt>
      <trkpt lat="45.988168716430664" lon="8.050898378714919">
        <ele>1991.8800000000001</ele>
        <time>2025-05-04T09:13:42Z</time>
      </trkpt>
      <trkpt lat="45.988196125254035" lon="8.050957722589374">
        <ele>1992.1199999999999</ele>
        <time>2025-05-04T09:14:52Z</time>
      </trkpt>
      <trkpt lat="45.988201824948192" lon="8.051082864403725">
        <ele>1993.0699999999999</ele>
        <time>2025-05-04T09:15:07Z</time>
      </trkpt>
      <trkpt lat="45.988197717815638" lon="8.051208090037108">
        <ele>1994.8499999999999</ele>
        <time>2025-05-04T09:15:32Z</time>
      </trkpt>
      <trkpt lat="45.988179109990597" lon="8.051339099183679">
        <ele>1996.72</ele>
        <time>2025-05-04T09:15:48Z</time>
      </trkpt>
      <trkpt lat="45.988190593197942" lon="8.05147304199636">
        <ele>1998.71</ele>
        <time>2025-05-04T09:16:08Z</time>
      </trkpt>
      <trkpt lat="45.98819587379694" lon="8.051605308428407">
        <ele>2000.8299999999999</ele>
        <time>2025-05-04T09:16:30Z</time>
      </trkpt>
      <trkpt lat="45.988166872411966" lon="8.051715781912208">
        <ele>2003.1800000000001</ele>
        <time>2025-05-04T09:16:52Z</time>
      </trkpt>
      <trkpt lat="45.988144241273403" lon="8.051849892362952">
        <ele>2007.1500000000001</ele>
        <time>2025-05-04T09:17:18Z</time>
      </trkpt>
      <trkpt lat="45.988145750015974" lon="8.051978722214699">
        <ele>2010.0799999999999</ele>
        <time>2025-05-04T09:17:41Z</time>
      </trkpt>
      <trkpt lat="45.988176427781582" lon="8.052100175991654">
        <ele>2012.25</ele>
        <time>2025-05-04T09:18:02Z</time>
      </trkpt>
      <trkpt lat="45.988135021179914" lon="8.052233699709177">
        <ele>2014.75</ele>
        <time>2025-05-04T09:18:31Z</time>
      </trkpt>
      <trkpt lat="45.988068301230669" lon="8.052317602559924">
        <ele>2017.03</ele>
        <time>2025-05-04T09:19:08Z</time>
      </trkpt>
      <trkpt lat="45.987976351752877" lon="8.052381053566933">
        <ele>2018.3599999999999</ele>
        <time>2025-05-04T09:19:26Z</time>
      </trkpt>
      <trkpt lat="45.987894712015986" lon="8.052368815988302">
        <ele>2018.1900000000001</ele>
        <time>2025-05-04T09:19:44Z</time>
      </trkpt>
      <trkpt lat="45.987808965146542" lon="8.05241072550416">
        <ele>2018.99</ele>
        <time>2025-05-04T09:20:05Z</time>
      </trkpt>
      <trkpt lat="45.987709974870086" lon="8.052478702738881">
        <ele>2018.4200000000001</ele>
        <time>2025-05-04T09:21:03Z</time>
      </trkpt>
      <trkpt lat="45.98763931542635" lon="8.05253729224205">
        <ele>2017.79</ele>
        <time>2025-05-04T09:21:19Z</time>
      </trkpt>
      <trkpt lat="45.987578295171261" lon="8.052629325538874">
        <ele>2018.6700000000001</ele>
        <time>2025-05-04T09:21:36Z</time>
      </trkpt>
      <trkpt lat="45.987529009580612" lon="8.052754048258066">
        <ele>2021.25</ele>
        <time>2025-05-04T09:21:53Z</time>
      </trkpt>
      <trkpt lat="45.987447705119848" lon="8.05285882204771">
        <ele>2023.71</ele>
        <time>2025-05-04T09:22:12Z</time>
      </trkpt>
      <trkpt lat="45.987392133101821" lon="8.052926547825337">
        <ele>2028.1300000000001</ele>
        <time>2025-05-04T09:22:37Z</time>
      </trkpt>
      <trkpt lat="45.987317115068436" lon="8.052998883649707">
        <ele>2029.9400000000001</ele>
        <time>2025-05-04T09:22:54Z</time>
      </trkpt>
      <trkpt lat="45.987268416211009" lon="8.053117990493774">
        <ele>2028.27</ele>
        <time>2025-05-04T09:23:06Z</time>
      </trkpt>
      <trkpt lat="45.987224746495485" lon="8.053243048489094">
        <ele>2028.54</ele>
        <time>2025-05-04T09:23:18Z</time>
      </trkpt>
      <trkpt lat="45.98722642287612" lon="8.053392330184579">
        <ele>2029.96</ele>
        <time>2025-05-04T09:23:33Z</time>
      </trkpt>
      <trkpt lat="45.987283335998654" lon="8.053475227206945">
        <ele>2031.45</ele>
        <time>2025-05-04T09:23:49Z</time>
      </trkpt>
      <trkpt lat="45.987348463386297" lon="8.05356684140861">
        <ele>2033.6400000000001</ele>
        <time>2025-05-04T09:24:07Z</time>
      </trkpt>
      <trkpt lat="45.987392803654075" lon="8.053687876090407">
        <ele>2033.8699999999999</ele>
        <time>2025-05-04T09:24:20Z</time>
      </trkpt>
      <trkpt lat="45.987430270761251" lon="8.053808407858014">
        <ele>2034.8499999999999</ele>
        <time>2025-05-04T09:24:34Z</time>
      </trkpt>
      <trkpt lat="45.987477209419012" lon="8.053921898826957">
        <ele>2034.6099999999999</ele>
        <time>2025-05-04T09:24:47Z</time>
      </trkpt>
      <trkpt lat="45.9875279199332" lon="8.054029103368521">
        <ele>2036.1300000000001</ele>
        <time>2025-05-04T09:25:03Z</time>
      </trkpt>
      <trkpt lat="45.987583072856069" lon="8.054128345102072">
        <ele>2037.55</ele>
        <time>2025-05-04T09:25:18Z</time>
      </trkpt>
      <trkpt lat="45.987638728693128" lon="8.054220378398895">
        <ele>2039.02</ele>
        <time>2025-05-04T09:25:33Z</time>
      </trkpt>
      <trkpt lat="45.987711735069752" lon="8.054302353411913">
        <ele>2040.97</ele>
        <time>2025-05-04T09:25:54Z</time>
      </trkpt>
      <trkpt lat="45.987768983468413" lon="8.054398074746132">
        <ele>2041.55</ele>
        <time>2025-05-04T09:26:08Z</time>
      </trkpt>
      <trkpt lat="45.987825896590948" lon="8.054492706432939">
        <ele>2042.48</ele>
        <time>2025-05-04T09:26:24Z</time>
      </trkpt>
      <trkpt lat="45.987882725894451" lon="8.054600330069661">
        <ele>2043.6600000000001</ele>
        <time>2025-05-04T09:26:41Z</time>
      </trkpt>
      <trkpt lat="45.987943410873413" lon="8.054701583459973">
        <ele>2046.6700000000001</ele>
        <time>2025-05-04T09:27:05Z</time>
      </trkpt>
      <trkpt lat="45.987995294854045" lon="8.054814152419567">
        <ele>2049.4499999999998</ele>
        <time>2025-05-04T09:27:28Z</time>
      </trkpt>
      <trkpt lat="45.988055560737848" lon="8.054898558184505">
        <ele>2048.0999999999999</ele>
        <time>2025-05-04T09:28:08Z</time>
      </trkpt>
      <trkpt lat="45.988129740580916" lon="8.054975755512714">
        <ele>2048.1999999999998</ele>
        <time>2025-05-04T09:28:18Z</time>
      </trkpt>
      <trkpt lat="45.988172655925155" lon="8.055096035823226">
        <ele>2046.77</ele>
        <time>2025-05-04T09:28:31Z</time>
      </trkpt>
      <trkpt lat="45.988237196579576" lon="8.055192427709699">
        <ele>2044.95</ele>
        <time>2025-05-04T09:28:42Z</time>
      </trkpt>
      <trkpt lat="45.988310873508453" lon="8.055279264226556">
        <ele>2044.9300000000001</ele>
        <time>2025-05-04T09:28:51Z</time>
      </trkpt>
      <trkpt lat="45.988388070836663" lon="8.055370710790157">
        <ele>2045.5699999999999</ele>
        <time>2025-05-04T09:29:02Z</time>
      </trkpt>
      <trkpt lat="45.988470297306776" lon="8.05543483234942">
        <ele>2046.3900000000001</ele>
        <time>2025-05-04T09:29:15Z</time>
      </trkpt>
      <trkpt lat="45.988550595939159" lon="8.055481687188149">
        <ele>2047.9000000000001</ele>
        <time>2025-05-04T09:29:38Z</time>
      </trkpt>
      <trkpt lat="45.988632319495082" lon="8.055543126538396">
        <ele>2047.8599999999999</ele>
        <time>2025-05-04T09:29:50Z</time>
      </trkpt>
      <trkpt lat="45.988712115213275" lon="8.055602638050914">
        <ele>2047.79</ele>
        <time>2025-05-04T09:30:02Z</time>
      </trkpt>
      <trkpt lat="45.988796856254339" lon="8.05565569549799">
        <ele>2048.7399999999998</ele>
        <time>2025-05-04T09:30:17Z</time>
      </trkpt>
      <trkpt lat="45.988858547061682" lon="8.055760636925697">
        <ele>2050.1900000000001</ele>
        <time>2025-05-04T09:30:29Z</time>
      </trkpt>
      <trkpt lat="45.988913951441646" lon="8.055867590010166">
        <ele>2050.5599999999999</ele>
        <time>2025-05-04T09:30:39Z</time>
      </trkpt>
      <trkpt lat="45.988986119627953" lon="8.055949732661247">
        <ele>2050.8000000000002</ele>
        <time>2025-05-04T09:30:52Z</time>
      </trkpt>
      <trkpt lat="45.989044290035963" lon="8.05605836212635">
        <ele>2051.1700000000001</ele>
        <time>2025-05-04T09:31:04Z</time>
      </trkpt>
      <trkpt lat="45.989074883982539" lon="8.056186689063907">
        <ele>2051.0999999999999</ele>
        <time>2025-05-04T09:31:16Z</time>
      </trkpt>
      <trkpt lat="45.989116793498397" lon="8.056306215003133">
        <ele>2051.8600000000001</ele>
        <time>2025-05-04T09:31:27Z</time>
      </trkpt>
      <trkpt lat="45.989175718277693" lon="8.056395566090941">
        <ele>2052.0700000000002</ele>
        <time>2025-05-04T09:31:37Z</time>
      </trkpt>
      <trkpt lat="45.989242270588875" lon="8.056478882208467">
        <ele>2052.6199999999999</ele>
        <time>2025-05-04T09:31:47Z</time>
      </trkpt>
      <trkpt lat="45.989308236166835" lon="8.056579129770398">
        <ele>2052.9499999999998</ele>
        <time>2025-05-04T09:31:57Z</time>
      </trkpt>
      <trkpt lat="45.989354504272342" lon="8.056687256321311">
        <ele>2052.6300000000001</ele>
        <time>2025-05-04T09:32:10Z</time>
      </trkpt>
      <trkpt lat="45.989418625831604" lon="8.056769650429487">
        <ele>2051.8699999999999</ele>
        <time>2025-05-04T09:32:29Z</time>
      </trkpt>
      <trkpt lat="45.989437317475677" lon="8.056896552443504">
        <ele>2050.04</ele>
        <time>2025-05-04T09:32:48Z</time>
      </trkpt>
      <trkpt lat="45.989449890330434" lon="8.057024292647839">
        <ele>2047.3499999999999</ele>
        <time>2025-05-04T09:33:06Z</time>
      </trkpt>
      <trkpt lat="45.989448549225926" lon="8.057152703404427">
        <ele>2045.8599999999999</ele>
        <time>2025-05-04T09:33:22Z</time>
      </trkpt>
      <trkpt lat="45.989492302760482" lon="8.057262087240815">
        <ele>2043.53</ele>
        <time>2025-05-04T09:33:55Z</time>
      </trkpt>
      <trkpt lat="45.989551814273" lon="8.057357892394066">
        <ele>2043.5</ele>
        <time>2025-05-04T09:34:22Z</time>
      </trkpt>
      <trkpt lat="45.989552903920412" lon="8.057499714195728">
        <ele>2044.54</ele>
        <time>2025-05-04T09:34:33Z</time>
      </trkpt>
      <trkpt lat="45.989585341885686" lon="8.057624101638794">
        <ele>2044.1500000000001</ele>
        <time>2025-05-04T09:34:43Z</time>
      </trkpt>
      <trkpt lat="45.989629849791527" lon="8.057745220139623">
        <ele>2044.8</ele>
        <time>2025-05-04T09:34:54Z</time>
      </trkpt>
      <trkpt lat="45.989656168967485" lon="8.057876732200384">
        <ele>2043.1300000000001</ele>
        <time>2025-05-04T09:35:04Z</time>
      </trkpt>
      <trkpt lat="45.989661868661642" lon="8.058010842651129">
        <ele>2043.6800000000001</ele>
        <time>2025-05-04T09:35:14Z</time>
      </trkpt>
      <trkpt lat="45.989658767357469" lon="8.058144869282842">
        <ele>2044.7</ele>
        <time>2025-05-04T09:35:25Z</time>
      </trkpt>
      <trkpt lat="45.989645943045616" lon="8.058270765468478">
        <ele>2045.3800000000001</ele>
        <time>2025-05-04T09:35:36Z</time>
      </trkpt>
      <trkpt lat="45.98967888392508" lon="8.058371767401695">
        <ele>2044.1500000000001</ele>
        <time>2025-05-04T09:36:18Z</time>
      </trkpt>
      <trkpt lat="45.989738646894693" lon="8.058456927537918">
        <ele>2040.76</ele>
        <time>2025-05-04T09:36:36Z</time>
      </trkpt>
      <trkpt lat="45.989726157858968" lon="8.058590115979314">
        <ele>2038.6300000000001</ele>
        <time>2025-05-04T09:36:49Z</time>
      </trkpt>
      <trkpt lat="45.989704616367817" lon="8.058728165924549">
        <ele>2037.8699999999999</ele>
        <time>2025-05-04T09:37:02Z</time>
      </trkpt>
      <trkpt lat="45.989697659388185" lon="8.058836124837399">
        <ele>2035.95</ele>
        <time>2025-05-04T09:37:46Z</time>
      </trkpt>
      <trkpt lat="45.989706041291356" lon="8.058960344642401">
        <ele>2033.01</ele>
        <time>2025-05-04T09:38:38Z</time>
      </trkpt>
      <trkpt lat="45.989664467051625" lon="8.059091940522194">
        <ele>2033.5699999999999</ele>
        <time>2025-05-04T09:40:01Z</time>
      </trkpt>
      <trkpt lat="45.989574026316404" lon="8.059156984090805">
        <ele>2034.79</ele>
        <time>2025-05-04T09:40:21Z</time>
      </trkpt>
      <trkpt lat="45.989522226154804" lon="8.059259578585625">
        <ele>2034.6900000000001</ele>
        <time>2025-05-04T09:40:36Z</time>
      </trkpt>
      <trkpt lat="45.989497415721416" lon="8.059384552761912">
        <ele>2035.2</ele>
        <time>2025-05-04T09:40:48Z</time>
      </trkpt>
      <trkpt lat="45.989518035203218" lon="8.0595095269382">
        <ele>2035.3900000000001</ele>
        <time>2025-05-04T09:41:02Z</time>
      </trkpt>
      <trkpt lat="45.989546198397875" lon="8.059640033170581">
        <ele>2035.53</ele>
        <time>2025-05-04T09:41:36Z</time>
      </trkpt>
      <trkpt lat="45.989589113742113" lon="8.059764252975583">
        <ele>2035.46</ele>
        <time>2025-05-04T09:41:46Z</time>
      </trkpt>
      <trkpt lat="45.989659940823913" lon="8.059824099764228">
        <ele>2035.3499999999999</ele>
        <time>2025-05-04T09:42:01Z</time>
      </trkpt>
      <trkpt lat="45.989635800942779" lon="8.059942703694105">
        <ele>2032.3499999999999</ele>
        <time>2025-05-04T09:42:19Z</time>
      </trkpt>
      <trkpt lat="45.989592131227255" lon="8.06005384773016">
        <ele>2032.0799999999999</ele>
        <time>2025-05-04T09:42:28Z</time>
      </trkpt>
      <trkpt lat="45.989601770415902" lon="8.06019214913249">
        <ele>2031.8599999999999</ele>
        <time>2025-05-04T09:42:37Z</time>
      </trkpt>
      <trkpt lat="45.989568494260311" lon="8.060329109430313">
        <ele>2031.8699999999999</ele>
        <time>2025-05-04T09:43:08Z</time>
      </trkpt>
      <trkpt lat="45.989574277773499" lon="8.060458609834313">
        <ele>2032.6500000000001</ele>
        <time>2025-05-04T09:43:20Z</time>
      </trkpt>
      <trkpt lat="45.989499008283019" lon="8.060547960922122">
        <ele>2033.1400000000001</ele>
        <time>2025-05-04T09:43:33Z</time>
      </trkpt>
      <trkpt lat="45.989452404901385" lon="8.060658350586891">
        <ele>2033.3900000000001</ele>
        <time>2025-05-04T09:43:44Z</time>
      </trkpt>
      <trkpt lat="45.989395575597882" lon="8.06076874025166">
        <ele>2034.0999999999999</ele>
        <time>2025-05-04T09:45:22Z</time>
      </trkpt>
      <trkpt lat="45.989317540079355" lon="8.06083663366735">
        <ele>2034.52</ele>
        <time>2025-05-04T09:45:45Z</time>
      </trkpt>
      <trkpt lat="45.989249814301729" lon="8.060941239818931">
        <ele>2035.9000000000001</ele>
        <time>2025-05-04T09:45:59Z</time>
      </trkpt>
      <trkpt lat="45.989167671650648" lon="8.061039978638291">
        <ele>2036.79</ele>
        <time>2025-05-04T09:46:13Z</time>
      </trkpt>
      <trkpt lat="45.989093072712421" lon="8.061120612546802">
        <ele>2039.22</ele>
        <time>2025-05-04T09:46:27Z</time>
      </trkpt>
      <trkpt lat="45.989022245630622" lon="8.061192277818918">
        <ele>2040.0699999999999</ele>
        <time>2025-05-04T09:46:40Z</time>
      </trkpt>
      <trkpt lat="45.988956447690725" lon="8.061278527602553">
        <ele>2040.8099999999999</ele>
        <time>2025-05-04T09:46:53Z</time>
      </trkpt>
      <trkpt lat="45.988888386636972" lon="8.061366705223918">
        <ele>2041.5999999999999</ele>
        <time>2025-05-04T09:47:07Z</time>
      </trkpt>
      <trkpt lat="45.988827869296074" lon="8.061463097110391">
        <ele>2042.25</ele>
        <time>2025-05-04T09:47:19Z</time>
      </trkpt>
      <trkpt lat="45.988728459924459" lon="8.06150701828301">
        <ele>2043.53</ele>
        <time>2025-05-04T09:47:32Z</time>
      </trkpt>
      <trkpt lat="45.988735584542155" lon="8.061580108478665">
        <ele>2045.0699999999999</ele>
        <time>2025-05-04T09:47:59Z</time>
      </trkpt>
      <trkpt lat="45.988699626177549" lon="8.061699131503701">
        <ele>2045.6300000000001</ele>
        <time>2025-05-04T09:48:24Z</time>
      </trkpt>
      <trkpt lat="45.988643718883395" lon="8.061761660501361">
        <ele>2045.22</ele>
        <time>2025-05-04T09:48:56Z</time>
      </trkpt>
      <trkpt lat="45.988571802154183" lon="8.06170349009335">
        <ele>2044.22</ele>
        <time>2025-05-04T09:49:14Z</time>
      </trkpt>
      <trkpt lat="45.98855746909976" lon="8.061770545318723">
        <ele>2043.74</ele>
        <time>2025-05-04T09:51:23Z</time>
      </trkpt>
      <trkpt lat="45.988528383895755" lon="8.061770377680659">
        <ele>2042.9400000000001</ele>
        <time>2025-05-04T10:02:45Z</time>
      </trkpt>
      <trkpt lat="45.988548835739493" lon="8.061749087646604">
        <ele>2045.0799999999999</ele>
        <time>2025-05-04T10:06:59Z</time>
      </trkpt>
      <trkpt lat="45.988561995327473" lon="8.061763672158122">
        <ele>2045.1300000000001</ele>
        <time>2025-05-04T10:09:22Z</time>
      </trkpt>
      <trkpt lat="45.988599043339491" lon="8.061741292476654">
        <ele>2045.6199999999999</ele>
        <time>2025-05-04T10:11:08Z</time>
      </trkpt>
      <trkpt lat="45.988675653934479" lon="8.061658730730414">
        <ele>2046.6300000000001</ele>
        <time>2025-05-04T10:11:25Z</time>
      </trkpt>
      <trkpt lat="45.988727202638984" lon="8.061534678563476">
        <ele>2046.2</ele>
        <time>2025-05-04T10:11:39Z</time>
      </trkpt>
      <trkpt lat="45.988787300884724" lon="8.061445998027921">
        <ele>2043.3399999999999</ele>
        <time>2025-05-04T10:11:48Z</time>
      </trkpt>
      <trkpt lat="45.988848237320781" lon="8.061349606141448">
        <ele>2042.0599999999999</ele>
        <time>2025-05-04T10:11:58Z</time>
      </trkpt>
      <trkpt lat="45.988917304202914" lon="8.061260590329766">
        <ele>2041.26</ele>
        <time>2025-05-04T10:12:11Z</time>
      </trkpt>
      <trkpt lat="45.988996680825949" lon="8.06120309047401">
        <ele>2040.9100000000001</ele>
        <time>2025-05-04T10:12:24Z</time>
      </trkpt>
      <trkpt lat="45.989051163196564" lon="8.061103010550141">
        <ele>2040.1300000000001</ele>
        <time>2025-05-04T10:12:41Z</time>
      </trkpt>
      <trkpt lat="45.989122493192554" lon="8.061031764373183">
        <ele>2038.73</ele>
        <time>2025-05-04T10:12:58Z</time>
      </trkpt>
      <trkpt lat="45.989189716055989" lon="8.060939395800233">
        <ele>2037.21</ele>
        <time>2025-05-04T10:13:14Z</time>
      </trkpt>
      <trkpt lat="45.989258866757154" lon="8.060865132138133">
        <ele>2036.3900000000001</ele>
        <time>2025-05-04T10:13:27Z</time>
      </trkpt>
      <trkpt lat="45.989328604191542" lon="8.060782821848989">
        <ele>2035.28</ele>
        <time>2025-05-04T10:13:41Z</time>
      </trkpt>
      <trkpt lat="45.989398509263992" lon="8.060701014474034">
        <ele>2034.8399999999999</ele>
        <time>2025-05-04T10:13:54Z</time>
      </trkpt>
      <trkpt lat="45.989438490942121" lon="8.060574531555176">
        <ele>2034.3399999999999</ele>
        <time>2025-05-04T10:14:08Z</time>
      </trkpt>
      <trkpt lat="45.989504875615239" lon="8.06048677302897">
        <ele>2034.3399999999999</ele>
        <time>2025-05-04T10:14:20Z</time>
      </trkpt>
      <trkpt lat="45.989560363814235" lon="8.060394404456019">
        <ele>2033.8499999999999</ele>
        <time>2025-05-04T10:14:44Z</time>
      </trkpt>
      <trkpt lat="45.989556675776839" lon="8.060266999527812">
        <ele>2032.8</ele>
        <time>2025-05-04T10:14:57Z</time>
      </trkpt>
      <trkpt lat="45.989596992731094" lon="8.060147222131491">
        <ele>2032.76</ele>
        <time>2025-05-04T10:15:08Z</time>
      </trkpt>
      <trkpt lat="45.989592466503382" lon="8.060007579624653">
        <ele>2033.23</ele>
        <time>2025-05-04T10:15:18Z</time>
      </trkpt>
      <trkpt lat="45.989653486758471" lon="8.059915713965893">
        <ele>2034.1199999999999</ele>
        <time>2025-05-04T10:15:33Z</time>
      </trkpt>
      <trkpt lat="45.98962758667767" lon="8.059818232432008">
        <ele>2036.8599999999999</ele>
        <time>2025-05-04T10:15:51Z</time>
      </trkpt>
      <trkpt lat="45.989571595564485" lon="8.059715386480093">
        <ele>2036.8199999999999</ele>
        <time>2025-05-04T10:16:00Z</time>
      </trkpt>
      <trkpt lat="45.98953178152442" lon="8.059588903561235">
        <ele>2037.4000000000001</ele>
        <time>2025-05-04T10:16:15Z</time>
      </trkpt>
      <trkpt lat="45.98950982093811" lon="8.059454960748553">
        <ele>2036.3900000000001</ele>
        <time>2025-05-04T10:16:24Z</time>
      </trkpt>
      <trkpt lat="45.989506132900715" lon="8.059320682659745">
        <ele>2036.23</ele>
        <time>2025-05-04T10:16:35Z</time>
      </trkpt>
      <trkpt lat="45.989550137892365" lon="8.059198809787631">
        <ele>2035.8099999999999</ele>
        <time>2025-05-04T10:16:46Z</time>
      </trkpt>
      <trkpt lat="45.98962021060288" lon="8.059106357395649">
        <ele>2035.6800000000001</ele>
        <time>2025-05-04T10:17:01Z</time>
      </trkpt>
      <trkpt lat="45.989722050726414" lon="8.059059251099825">
        <ele>2033.6500000000001</ele>
        <time>2025-05-04T10:18:07Z</time>
      </trkpt>
      <trkpt lat="45.989712243899703" lon="8.058922626078129">
        <ele>2034.6900000000001</ele>
        <time>2025-05-04T10:18:34Z</time>
      </trkpt>
      <trkpt lat="45.98971551284194" lon="8.058801759034395">
        <ele>2037.9100000000001</ele>
        <time>2025-05-04T10:18:49Z</time>
      </trkpt>
      <trkpt lat="45.989721547812223" lon="8.058742163702846">
        <ele>2038</ele>
        <time>2025-05-04T10:20:04Z</time>
      </trkpt>
      <trkpt lat="45.989741161465645" lon="8.058604700490832">
        <ele>2039.6099999999999</ele>
        <time>2025-05-04T10:20:13Z</time>
      </trkpt>
      <trkpt lat="45.9897849150002" lon="8.058519707992673">
        <ele>2040.55</ele>
        <time>2025-05-04T10:20:30Z</time>
      </trkpt>
      <trkpt lat="45.98972188308835" lon="8.058416023850441">
        <ele>2043.9300000000001</ele>
        <time>2025-05-04T10:20:47Z</time>
      </trkpt>
      <trkpt lat="45.989653822034597" lon="8.058327762410045">
        <ele>2045.74</ele>
        <time>2025-05-04T10:21:00Z</time>
      </trkpt>
      <trkpt lat="45.989640997722745" lon="8.058181665837765">
        <ele>2045.99</ele>
        <time>2025-05-04T10:21:10Z</time>
      </trkpt>
      <trkpt lat="45.989669663831592" lon="8.05804219096899">
        <ele>2044.9400000000001</ele>
        <time>2025-05-04T10:21:20Z</time>
      </trkpt>
      <trkpt lat="45.989662874490023" lon="8.057900201529265">
        <ele>2043.04</ele>
        <time>2025-05-04T10:21:33Z</time>
      </trkpt>
      <trkpt lat="45.989632783457637" lon="8.057769779115915">
        <ele>2044.29</ele>
        <time>2025-05-04T10:21:44Z</time>
      </trkpt>
      <trkpt lat="45.989596238359809" lon="8.057648912072182">
        <ele>2044.3099999999999</ele>
        <time>2025-05-04T10:21:55Z</time>
      </trkpt>
      <trkpt lat="45.989556005224586" lon="8.057542042806745">
        <ele>2044.52</ele>
        <time>2025-05-04T10:22:05Z</time>
      </trkpt>
      <trkpt lat="45.989572098478675" lon="8.057414805516601">
        <ele>2044.5999999999999</ele>
        <time>2025-05-04T10:22:18Z</time>
      </trkpt>
      <trkpt lat="45.989540833979845" lon="8.05734733119607">
        <ele>2043.1900000000001</ele>
        <time>2025-05-04T10:22:41Z</time>
      </trkpt>
      <trkpt lat="45.98949272185564" lon="8.057264098897576">
        <ele>2043.96</ele>
        <time>2025-05-04T10:23:00Z</time>
      </trkpt>
      <trkpt lat="45.989453913643956" lon="8.057109788060188">
        <ele>2047.1300000000001</ele>
        <time>2025-05-04T10:23:13Z</time>
      </trkpt>
      <trkpt lat="45.989428851753473" lon="8.056978527456522">
        <ele>2048.3299999999999</ele>
        <time>2025-05-04T10:23:30Z</time>
      </trkpt>
      <trkpt lat="45.98943698219955" lon="8.056848188862205">
        <ele>2051.1700000000001</ele>
        <time>2025-05-04T10:23:46Z</time>
      </trkpt>
      <trkpt lat="45.989403119310737" lon="8.056728998199105">
        <ele>2052.9400000000001</ele>
        <time>2025-05-04T10:24:04Z</time>
      </trkpt>
      <trkpt lat="45.989341344684362" lon="8.056643083691597">
        <ele>2053.9400000000001</ele>
        <time>2025-05-04T10:24:16Z</time>
      </trkpt>
      <trkpt lat="45.989292981103063" lon="8.056550547480583">
        <ele>2053.3699999999999</ele>
        <time>2025-05-04T10:24:31Z</time>
      </trkpt>
      <trkpt lat="45.989226344972849" lon="8.056450048461556">
        <ele>2053.46</ele>
        <time>2025-05-04T10:24:41Z</time>
      </trkpt>
      <trkpt lat="45.989157613366842" lon="8.056382741779089">
        <ele>2052.3099999999999</ele>
        <time>2025-05-04T10:24:50Z</time>
      </trkpt>
      <trkpt lat="45.98913355730474" lon="8.056287607178092">
        <ele>2052.6500000000001</ele>
        <time>2025-05-04T10:24:59Z</time>
      </trkpt>
      <trkpt lat="45.989106483757496" lon="8.056171014904976">
        <ele>2051.7800000000002</ele>
        <time>2025-05-04T10:25:08Z</time>
      </trkpt>
      <trkpt lat="45.989087875932455" lon="8.056043945252895">
        <ele>2051.6999999999998</ele>
        <time>2025-05-04T10:25:20Z</time>
      </trkpt>
      <trkpt lat="45.989029202610254" lon="8.055969849228859">
        <ele>2051.8099999999999</ele>
        <time>2025-05-04T10:25:29Z</time>
      </trkpt>
      <trkpt lat="45.988957369700074" lon="8.055883180350065">
        <ele>2050.5900000000001</ele>
        <time>2025-05-04T10:25:38Z</time>
      </trkpt>
      <trkpt lat="45.988900875672698" lon="8.055764744058251">
        <ele>2050.6599999999999</ele>
        <time>2025-05-04T10:25:48Z</time>
      </trkpt>
      <trkpt lat="45.988821163773537" lon="8.055675560608506">
        <ele>2049.25</ele>
        <time>2025-05-04T10:25:59Z</time>
      </trkpt>
      <trkpt lat="45.98873726092279" lon="8.055610433220863">
        <ele>2047.9400000000001</ele>
        <time>2025-05-04T10:26:08Z</time>
      </trkpt>
      <trkpt lat="45.988652687519789" lon="8.055536421015859">
        <ele>2048.0500000000002</ele>
        <time>2025-05-04T10:26:19Z</time>
      </trkpt>
      <trkpt lat="45.988567359745502" lon="8.055482190102339">
        <ele>2048.1900000000001</ele>
        <time>2025-05-04T10:26:29Z</time>
      </trkpt>
      <trkpt lat="45.988488318398595" lon="8.055442040786147">
        <ele>2046.47</ele>
        <time>2025-05-04T10:26:43Z</time>
      </trkpt>
      <trkpt lat="45.988403744995594" lon="8.055379008874297">
        <ele>2045.22</ele>
        <time>2025-05-04T10:26:55Z</time>
      </trkpt>
      <trkpt lat="45.988323278725147" lon="8.055276749655604">
        <ele>2044.98</ele>
        <time>2025-05-04T10:27:04Z</time>
      </trkpt>
      <trkpt lat="45.988248679786921" lon="8.055193768814206">
        <ele>2044.8800000000001</ele>
        <time>2025-05-04T10:27:12Z</time>
      </trkpt>
      <trkpt lat="45.988181624561548" lon="8.055090755224228">
        <ele>2046.3099999999999</ele>
        <time>2025-05-04T10:27:25Z</time>
      </trkpt>
      <trkpt lat="45.98813091404736" lon="8.054982628673315">
        <ele>2047.8399999999999</ele>
        <time>2025-05-04T10:27:38Z</time>
      </trkpt>
      <trkpt lat="45.988053549081087" lon="8.054909789934754">
        <ele>2047.98</ele>
        <time>2025-05-04T10:27:48Z</time>
      </trkpt>
      <trkpt lat="45.987992528825998" lon="8.05481331422925">
        <ele>2049.4099999999999</ele>
        <time>2025-05-04T10:28:07Z</time>
      </trkpt>
      <trkpt lat="45.987944165244699" lon="8.054698314517736">
        <ele>2046.8800000000001</ele>
        <time>2025-05-04T10:28:19Z</time>
      </trkpt>
      <trkpt lat="45.987885994836688" lon="8.0545948818326">
        <ele>2044</ele>
        <time>2025-05-04T10:28:31Z</time>
      </trkpt>
      <trkpt lat="45.987833105027676" lon="8.054493041709065">
        <ele>2042.6700000000001</ele>
        <time>2025-05-04T10:28:40Z</time>
      </trkpt>
      <trkpt lat="45.987771078944206" lon="8.054394302889705">
        <ele>2041.8599999999999</ele>
        <time>2025-05-04T10:28:52Z</time>
      </trkpt>
      <trkpt lat="45.987710645422339" lon="8.054300593212247">
        <ele>2040.54</ele>
        <time>2025-05-04T10:29:04Z</time>
      </trkpt>
      <trkpt lat="45.987636633217335" lon="8.054222725331783">
        <ele>2038.6800000000001</ele>
        <time>2025-05-04T10:29:15Z</time>
      </trkpt>
      <trkpt lat="45.987571338191628" lon="8.054124992340803">
        <ele>2037.3699999999999</ele>
        <time>2025-05-04T10:29:25Z</time>
      </trkpt>
      <trkpt lat="45.987515179440379" lon="8.054029438644648">
        <ele>2036.1900000000001</ele>
        <time>2025-05-04T10:29:37Z</time>
      </trkpt>
      <trkpt lat="45.987468995153904" lon="8.053933549672365">
        <ele>2034.96</ele>
        <time>2025-05-04T10:29:51Z</time>
      </trkpt>
      <trkpt lat="45.987419122830033" lon="8.053820310160518">
        <ele>2034.3099999999999</ele>
        <time>2025-05-04T10:30:01Z</time>
      </trkpt>
      <trkpt lat="45.987382577732205" lon="8.053703298792243">
        <ele>2033.6700000000001</ele>
        <time>2025-05-04T10:30:13Z</time>
      </trkpt>
      <trkpt lat="45.987340416759253" lon="8.053584694862366">
        <ele>2033.4200000000001</ele>
        <time>2025-05-04T10:30:26Z</time>
      </trkpt>
      <trkpt lat="45.987286772578955" lon="8.053497690707445">
        <ele>2031.6300000000001</ele>
        <time>2025-05-04T10:30:40Z</time>
      </trkpt>
      <trkpt lat="45.987219801172614" lon="8.053407669067383">
        <ele>2029.8699999999999</ele>
        <time>2025-05-04T10:30:54Z</time>
      </trkpt>
      <trkpt lat="45.987211335450411" lon="8.053280264139175">
        <ele>2029.05</ele>
        <time>2025-05-04T10:31:06Z</time>
      </trkpt>
      <trkpt lat="45.987242851406336" lon="8.053163420408964">
        <ele>2027.7</ele>
        <time>2025-05-04T10:31:18Z</time>
      </trkpt>
      <trkpt lat="45.987285347655416" lon="8.053039954975247">
        <ele>2028.8599999999999</ele>
        <time>2025-05-04T10:31:31Z</time>
      </trkpt>
      <trkpt lat="45.987348714843392" lon="8.052939455956221">
        <ele>2028.6300000000001</ele>
        <time>2025-05-04T10:31:43Z</time>
      </trkpt>
      <trkpt lat="45.987411076202989" lon="8.052861755713821">
        <ele>2025.24</ele>
        <time>2025-05-04T10:32:00Z</time>
      </trkpt>
      <trkpt lat="45.987471509724855" lon="8.05277282372117">
        <ele>2023</ele>
        <time>2025-05-04T10:32:12Z</time>
      </trkpt>
      <trkpt lat="45.987537475302815" lon="8.052696380764246">
        <ele>2020.4000000000001</ele>
        <time>2025-05-04T10:32:25Z</time>
      </trkpt>
      <trkpt lat="45.987568404525518" lon="8.052590601146221">
        <ele>2018.52</ele>
        <time>2025-05-04T10:32:41Z</time>
      </trkpt>
      <trkpt lat="45.98764032125473" lon="8.05251189507544">
        <ele>2017.8900000000001</ele>
        <time>2025-05-04T10:33:04Z</time>
      </trkpt>
      <trkpt lat="45.987721793353558" lon="8.052439894527197">
        <ele>2017.6900000000001</ele>
        <time>2025-05-04T10:33:21Z</time>
      </trkpt>
      <trkpt lat="45.987810306251049" lon="8.052401002496481">
        <ele>2018.2</ele>
        <time>2025-05-04T10:33:39Z</time>
      </trkpt>
      <trkpt lat="45.98789831623435" lon="8.052375270053744">
        <ele>2017.53</ele>
        <time>2025-05-04T10:33:56Z</time>
      </trkpt>
      <trkpt lat="45.987979285418987" lon="8.052370827645063">
        <ele>2017.8399999999999</ele>
        <time>2025-05-04T10:34:17Z</time>
      </trkpt>
      <trkpt lat="45.988052962347865" lon="8.052319949492812">
        <ele>2017.4400000000001</ele>
        <time>2025-05-04T10:34:40Z</time>
      </trkpt>
      <trkpt lat="45.988117838278413" lon="8.052225988358259">
        <ele>2014.74</ele>
        <time>2025-05-04T10:35:15Z</time>
      </trkpt>
      <trkpt lat="45.988157233223319" lon="8.052128674462438">
        <ele>2013.25</ele>
        <time>2025-05-04T10:35:37Z</time>
      </trkpt>
      <trkpt lat="45.9881323389709" lon="8.052006969228387">
        <ele>2010.9000000000001</ele>
        <time>2025-05-04T10:36:02Z</time>
      </trkpt>
      <trkpt lat="45.988119430840015" lon="8.05189129896462">
        <ele>2007.4100000000001</ele>
        <time>2025-05-04T10:36:15Z</time>
      </trkpt>
      <trkpt lat="45.988162681460381" lon="8.051765905693173">
        <ele>2004.76</ele>
        <time>2025-05-04T10:36:28Z</time>
      </trkpt>
      <trkpt lat="45.988174583762884" lon="8.051658198237419">
        <ele>2002</ele>
        <time>2025-05-04T10:36:44Z</time>
      </trkpt>
      <trkpt lat="45.988181540742517" lon="8.051531463861466">
        <ele>2000.3399999999999</ele>
        <time>2025-05-04T10:37:02Z</time>
      </trkpt>
      <trkpt lat="45.988165866583586" lon="8.051404478028417">
        <ele>1998.5599999999999</ele>
        <time>2025-05-04T10:37:13Z</time>
      </trkpt>
      <trkpt lat="45.988186905160546" lon="8.051277659833431">
        <ele>1996.3199999999999</ele>
        <time>2025-05-04T10:37:25Z</time>
      </trkpt>
      <trkpt lat="45.988191347569227" lon="8.051152769476175">
        <ele>1995.8</ele>
        <time>2025-05-04T10:38:39Z</time>
      </trkpt>
      <trkpt lat="45.98817341029644" lon="8.051029471680522">
        <ele>1994.74</ele>
        <time>2025-05-04T10:38:53Z</time>
      </trkpt>
      <trkpt lat="45.9881582390517" lon="8.050916315987706">
        <ele>1993.73</ele>
        <time>2025-05-04T10:39:13Z</time>
      </trkpt>
      <trkpt lat="45.988127309828997" lon="8.050788072869182">
        <ele>1991.3499999999999</ele>
        <time>2025-05-04T10:39:48Z</time>
      </trkpt>
      <trkpt lat="45.988107528537512" lon="8.050734428688884">
        <ele>1989.3900000000001</ele>
        <time>2025-05-04T10:40:17Z</time>
      </trkpt>
      <trkpt lat="45.988077856600285" lon="8.050642982125282">
        <ele>1986.71</ele>
        <time>2025-05-04T10:40:51Z</time>
      </trkpt>
      <trkpt lat="45.988104175776243" lon="8.050497556105256">
        <ele>1988.76</ele>
        <time>2025-05-04T10:41:14Z</time>
      </trkpt>
      <trkpt lat="45.988100823014975" lon="8.050366379320622">
        <ele>1989.1400000000001</ele>
        <time>2025-05-04T10:41:23Z</time>
      </trkpt>
      <trkpt lat="45.988101828843355" lon="8.050238974392414">
        <ele>1991.0999999999999</ele>
        <time>2025-05-04T10:41:35Z</time>
      </trkpt>
      <trkpt lat="45.988084645941854" lon="8.050121041014791">
        <ele>1990.6700000000001</ele>
        <time>2025-05-04T10:41:45Z</time>
      </trkpt>
      <trkpt lat="45.98810451105237" lon="8.049997659400106">
        <ele>1991.1300000000001</ele>
        <time>2025-05-04T10:42:20Z</time>
      </trkpt>
      <trkpt lat="45.988078778609633" lon="8.049877714365721">
        <ele>1991.8399999999999</ele>
        <time>2025-05-04T10:43:06Z</time>
      </trkpt>
      <trkpt lat="45.988075593486428" lon="8.049746789038181">
        <ele>1991.1500000000001</ele>
        <time>2025-05-04T10:43:14Z</time>
      </trkpt>
      <trkpt lat="45.988088082522154" lon="8.049609577283263">
        <ele>1990.8599999999999</ele>
        <time>2025-05-04T10:43:22Z</time>
      </trkpt>
      <trkpt lat="45.988134182989597" lon="8.049495331943035">
        <ele>1992.6900000000001</ele>
        <time>2025-05-04T10:43:33Z</time>
      </trkpt>
      <trkpt lat="45.988163352012634" lon="8.049371112138033">
        <ele>1993.3399999999999</ele>
        <time>2025-05-04T10:43:45Z</time>
      </trkpt>
      <trkpt lat="45.988166788592935" lon="8.049277486279607">
        <ele>1992.9000000000001</ele>
        <time>2025-05-04T10:44:11Z</time>
      </trkpt>
      <trkpt lat="45.988126806914806" lon="8.049178579822183">
        <ele>1990.1099999999999</ele>
        <time>2025-05-04T10:44:25Z</time>
      </trkpt>
      <trkpt lat="45.988115575164557" lon="8.049053689464927">
        <ele>1988.9000000000001</ele>
        <time>2025-05-04T10:44:36Z</time>
      </trkpt>
      <trkpt lat="45.988083304837346" lon="8.048927122727037">
        <ele>1986.45</ele>
        <time>2025-05-04T10:44:54Z</time>
      </trkpt>
      <trkpt lat="45.988062098622322" lon="8.048802735283971">
        <ele>1984.95</ele>
        <time>2025-05-04T10:45:06Z</time>
      </trkpt>
      <trkpt lat="45.988047262653708" lon="8.048678683117032">
        <ele>1983.45</ele>
        <time>2025-05-04T10:45:23Z</time>
      </trkpt>
      <trkpt lat="45.988008873537183" lon="8.048564773052931">
        <ele>1981.45</ele>
        <time>2025-05-04T10:45:36Z</time>
      </trkpt>
      <trkpt lat="45.98801214247942" lon="8.048431249335408">
        <ele>1980.7</ele>
        <time>2025-05-04T10:45:47Z</time>
      </trkpt>
      <trkpt lat="45.987955229356885" lon="8.048318093642592">
        <ele>1978.26</ele>
        <time>2025-05-04T10:45:59Z</time>
      </trkpt>
      <trkpt lat="45.987904686480761" lon="8.048210805281997">
        <ele>1977.01</ele>
        <time>2025-05-04T10:46:09Z</time>
      </trkpt>
      <trkpt lat="45.987917259335518" lon="8.048084070906043">
        <ele>1975.46</ele>
        <time>2025-05-04T10:46:21Z</time>
      </trkpt>
      <trkpt lat="45.987921953201294" lon="8.047945266589522">
        <ele>1973.97</ele>
        <time>2025-05-04T10:46:37Z</time>
      </trkpt>
      <trkpt lat="45.987894292920828" lon="8.04783814586699">
        <ele>1974.48</ele>
        <time>2025-05-04T10:46:56Z</time>
      </trkpt>
      <trkpt lat="45.987816676497459" lon="8.047763630747795">
        <ele>1974.72</ele>
        <time>2025-05-04T10:47:11Z</time>
      </trkpt>
      <trkpt lat="45.987740904092789" lon="8.047687690705061">
        <ele>1976.53</ele>
        <time>2025-05-04T10:47:24Z</time>
      </trkpt>
      <trkpt lat="45.987687846645713" lon="8.047587526962161">
        <ele>1979.26</ele>
        <time>2025-05-04T10:47:41Z</time>
      </trkpt>
      <trkpt lat="45.987646942958236" lon="8.047475460916758">
        <ele>1982.3099999999999</ele>
        <time>2025-05-04T10:48:07Z</time>
      </trkpt>
      <trkpt lat="45.987587682902813" lon="8.047387534752488">
        <ele>1984.3399999999999</ele>
        <time>2025-05-04T10:48:22Z</time>
      </trkpt>
      <trkpt lat="45.987498164176941" lon="8.047360880300403">
        <ele>1985.6099999999999</ele>
        <time>2025-05-04T10:48:34Z</time>
      </trkpt>
      <trkpt lat="45.987434545531869" lon="8.047263650223613">
        <ele>1988.54</ele>
        <time>2025-05-04T10:48:49Z</time>
      </trkpt>
      <trkpt lat="45.987401185557246" lon="8.047147979959846">
        <ele>1991.3900000000001</ele>
        <time>2025-05-04T10:49:09Z</time>
      </trkpt>
      <trkpt lat="45.987325245514512" lon="8.047060389071703">
        <ele>1993.5699999999999</ele>
        <time>2025-05-04T10:49:24Z</time>
      </trkpt>
      <trkpt lat="45.987244863063097" lon="8.046999871730804">
        <ele>1994.1500000000001</ele>
        <time>2025-05-04T10:49:35Z</time>
      </trkpt>
      <trkpt lat="45.987171940505505" lon="8.0469292961061">
        <ele>1994.2</ele>
        <time>2025-05-04T10:49:45Z</time>
      </trkpt>
      <trkpt lat="45.987098179757595" lon="8.046851009130478">
        <ele>1995.0899999999999</ele>
        <time>2025-05-04T10:49:57Z</time>
      </trkpt>
      <trkpt lat="45.987024502828717" lon="8.046780349686742">
        <ele>1995.7</ele>
        <time>2025-05-04T10:50:07Z</time>
      </trkpt>
      <trkpt lat="45.986981838941574" lon="8.046665769070387">
        <ele>1997.25</ele>
        <time>2025-05-04T10:50:19Z</time>
      </trkpt>
      <trkpt lat="45.98693230189383" lon="8.046548757702112">
        <ele>1999</ele>
        <time>2025-05-04T10:50:33Z</time>
      </trkpt>
      <trkpt lat="45.986877735704184" lon="8.04644700139761">
        <ele>1998.8800000000001</ele>
        <time>2025-05-04T10:51:22Z</time>
      </trkpt>
      <trkpt lat="45.986894583329558" lon="8.046487234532833">
        <ele>1999.25</ele>
        <time>2025-05-04T10:54:36Z</time>
      </trkpt>
      <trkpt lat="45.98687362857163" lon="8.046442223712802">
        <ele>1999.4100000000001</ele>
        <time>2025-05-04T10:56:06Z</time>
      </trkpt>
      <trkpt lat="45.986887291073799" lon="8.046416407451034">
        <ele>2003.9000000000001</ele>
        <time>2025-05-04T11:05:08Z</time>
      </trkpt>
      <trkpt lat="45.986939091235399" lon="8.046309789642692">
        <ele>2003.3299999999999</ele>
        <time>2025-05-04T11:05:20Z</time>
      </trkpt>
      <trkpt lat="45.986888632178307" lon="8.046209122985601">
        <ele>2000.6900000000001</ele>
        <time>2025-05-04T11:05:35Z</time>
      </trkpt>
      <trkpt lat="45.986827947199345" lon="8.04612061008811">
        <ele>1997.4300000000001</ele>
        <time>2025-05-04T11:05:49Z</time>
      </trkpt>
      <trkpt lat="45.986812356859446" lon="8.046011729165912">
        <ele>1994.3099999999999</ele>
        <time>2025-05-04T11:06:03Z</time>
      </trkpt>
      <trkpt lat="45.986863235011697" lon="8.045895472168922">
        <ele>1991.1400000000001</ele>
        <time>2025-05-04T11:06:17Z</time>
      </trkpt>
      <trkpt lat="45.986815374344587" lon="8.045849706977606">
        <ele>1988.26</ele>
        <time>2025-05-04T11:06:31Z</time>
      </trkpt>
      <trkpt lat="45.986770866438746" lon="8.045829674229026">
        <ele>1986.78</ele>
        <time>2025-05-04T11:10:56Z</time>
      </trkpt>
      <trkpt lat="45.986829875037074" lon="8.04572481662035">
        <ele>1984.8599999999999</ele>
        <time>2025-05-04T11:11:05Z</time>
      </trkpt>
      <trkpt lat="45.986830294132233" lon="8.045626329258084">
        <ele>1981.5599999999999</ele>
        <time>2025-05-04T11:11:20Z</time>
      </trkpt>
      <trkpt lat="45.986739685758948" lon="8.045640159398317">
        <ele>1979.3499999999999</ele>
        <time>2025-05-04T11:11:33Z</time>
      </trkpt>
      <trkpt lat="45.986686293035746" lon="8.045606128871441">
        <ele>1976.03</ele>
        <time>2025-05-04T11:11:49Z</time>
      </trkpt>
      <trkpt lat="45.986590152606368" lon="8.045612750574946">
        <ele>1972.22</ele>
        <time>2025-05-04T11:12:04Z</time>
      </trkpt>
      <trkpt lat="45.986548913642764" lon="8.045560531318188">
        <ele>1968.6500000000001</ele>
        <time>2025-05-04T11:12:23Z</time>
      </trkpt>
      <trkpt lat="45.986581016331911" lon="8.045424828305841">
        <ele>1965.95</ele>
        <time>2025-05-04T11:12:37Z</time>
      </trkpt>
      <trkpt lat="45.986581183969975" lon="8.04529482498765">
        <ele>1962.55</ele>
        <time>2025-05-04T11:12:53Z</time>
      </trkpt>
      <trkpt lat="45.986510440707207" lon="8.045295076444745">
        <ele>1959.49</ele>
        <time>2025-05-04T11:13:11Z</time>
      </trkpt>
      <trkpt lat="45.986436596140265" lon="8.045256352052093">
        <ele>1956.28</ele>
        <time>2025-05-04T11:13:28Z</time>
      </trkpt>
      <trkpt lat="45.986410863697529" lon="8.045152500271797">
        <ele>1952.5599999999999</ele>
        <time>2025-05-04T11:13:45Z</time>
      </trkpt>
      <trkpt lat="45.986377168446779" lon="8.045087540522218">
        <ele>1950.01</ele>
        <time>2025-05-04T11:14:02Z</time>
      </trkpt>
      <trkpt lat="45.986307933926582" lon="8.045057700946927">
        <ele>1945.8699999999999</ele>
        <time>2025-05-04T11:14:23Z</time>
      </trkpt>
      <trkpt lat="45.98622721619904" lon="8.04501042701304">
        <ele>1942.0599999999999</ele>
        <time>2025-05-04T11:14:42Z</time>
      </trkpt>
      <trkpt lat="45.986167537048459" lon="8.044966170564294">
        <ele>1938.5699999999999</ele>
        <time>2025-05-04T11:15:00Z</time>
      </trkpt>
      <trkpt lat="45.986134093254805" lon="8.044859720394015">
        <ele>1934.95</ele>
        <time>2025-05-04T11:15:18Z</time>
      </trkpt>
      <trkpt lat="45.986066535115242" lon="8.044805154204369">
        <ele>1931.26</ele>
        <time>2025-05-04T11:15:34Z</time>
      </trkpt>
      <trkpt lat="45.986003922298551" lon="8.044700296595693">
        <ele>1926.4200000000001</ele>
        <time>2025-05-04T11:15:54Z</time>
      </trkpt>
      <trkpt lat="45.985956648364663" lon="8.044672049582005">
        <ele>1922.6300000000001</ele>
        <time>2025-05-04T11:16:10Z</time>
      </trkpt>
      <trkpt lat="45.985959162935615" lon="8.044586386531591">
        <ele>1919.3699999999999</ele>
        <time>2025-05-04T11:16:28Z</time>
      </trkpt>
      <trkpt lat="45.985921025276184" lon="8.044499214738607">
        <ele>1914.5799999999999</ele>
        <time>2025-05-04T11:16:49Z</time>
      </trkpt>
      <trkpt lat="45.985939465463161" lon="8.044383963569999">
        <ele>1910.3900000000001</ele>
        <time>2025-05-04T11:17:11Z</time>
      </trkpt>
      <trkpt lat="45.985888419672847" lon="8.04442553780973">
        <ele>1908.0999999999999</ele>
        <time>2025-05-04T11:17:26Z</time>
      </trkpt>
      <trkpt lat="45.985861262306571" lon="8.044324954971671">
        <ele>1904.1700000000001</ele>
        <time>2025-05-04T11:17:44Z</time>
      </trkpt>
      <trkpt lat="45.98586025647819" lon="8.044253624975681">
        <ele>1901.96</ele>
        <time>2025-05-04T11:18:03Z</time>
      </trkpt>
      <trkpt lat="45.98578792065382" lon="8.044293355196714">
        <ele>1899.54</ele>
        <time>2025-05-04T11:18:22Z</time>
      </trkpt>
      <trkpt lat="45.9857077896595" lon="8.044288577511907">
        <ele>1895.5899999999999</ele>
        <time>2025-05-04T11:18:37Z</time>
      </trkpt>
      <trkpt lat="45.985726984217763" lon="8.044160585850477">
        <ele>1891.5699999999999</ele>
        <time>2025-05-04T11:18:55Z</time>
      </trkpt>
      <trkpt lat="45.985691109672189" lon="8.044090596958995">
        <ele>1887.8699999999999</ele>
        <time>2025-05-04T11:19:16Z</time>
      </trkpt>
      <trkpt lat="45.985605362802744" lon="8.044085148721933">
        <ele>1884.52</ele>
        <time>2025-05-04T11:19:34Z</time>
      </trkpt>
      <trkpt lat="45.985621204599738" lon="8.043998731300235">
        <ele>1880.79</ele>
        <time>2025-05-04T11:19:51Z</time>
      </trkpt>
      <trkpt lat="45.985594717785716" lon="8.04392765276134">
        <ele>1877.3299999999999</ele>
        <time>2025-05-04T11:20:14Z</time>
      </trkpt>
      <trkpt lat="45.985644171014428" lon="8.0438347812742">
        <ele>1874.1800000000001</ele>
        <time>2025-05-04T11:20:30Z</time>
      </trkpt>
      <trkpt lat="45.985716758295894" lon="8.043778371065855">
        <ele>1871.76</ele>
        <time>2025-05-04T11:20:43Z</time>
      </trkpt>
      <trkpt lat="45.985746849328279" lon="8.043715422973037">
        <ele>1868.8099999999999</ele>
        <time>2025-05-04T11:20:57Z</time>
      </trkpt>
      <trkpt lat="45.985828824341297" lon="8.043652726337314">
        <ele>1866.47</ele>
        <time>2025-05-04T11:21:12Z</time>
      </trkpt>
      <trkpt lat="45.985794626176357" lon="8.04352305829525">
        <ele>1863.4000000000001</ele>
        <time>2025-05-04T11:21:28Z</time>
      </trkpt>
      <trkpt lat="45.985805774107575" lon="8.04345466196537">
        <ele>1860.7</ele>
        <time>2025-05-04T11:21:49Z</time>
      </trkpt>
      <trkpt lat="45.985812563449144" lon="8.04335449822247">
        <ele>1860.3399999999999</ele>
        <time>2025-05-04T11:22:22Z</time>
      </trkpt>
      <trkpt lat="45.985739640891552" lon="8.043348044157028">
        <ele>1857.4400000000001</ele>
        <time>2025-05-04T11:22:36Z</time>
      </trkpt>
      <trkpt lat="45.985667472705245" lon="8.043393306434155">
        <ele>1854.25</ele>
        <time>2025-05-04T11:22:48Z</time>
      </trkpt>
      <trkpt lat="45.985576277598739" lon="8.043379727751017">
        <ele>1850.78</ele>
        <time>2025-05-04T11:23:02Z</time>
      </trkpt>
      <trkpt lat="45.985478712245822" lon="8.043398503214121">
        <ele>1848.0699999999999</ele>
        <time>2025-05-04T11:23:15Z</time>
      </trkpt>
      <trkpt lat="45.985388522967696" lon="8.043344104662538">
        <ele>1844.4300000000001</ele>
        <time>2025-05-04T11:23:33Z</time>
      </trkpt>
      <trkpt lat="45.985424900427461" lon="8.043224411085248">
        <ele>1840.23</ele>
        <time>2025-05-04T11:23:51Z</time>
      </trkpt>
      <trkpt lat="45.985403023660183" lon="8.043155092746019">
        <ele>1836.5699999999999</ele>
        <time>2025-05-04T11:24:09Z</time>
      </trkpt>
      <trkpt lat="45.98542045801878" lon="8.043054090812802">
        <ele>1832.0899999999999</ele>
        <time>2025-05-04T11:24:26Z</time>
      </trkpt>
      <trkpt lat="45.985406627878547" lon="8.042944706976414">
        <ele>1827.0699999999999</ele>
        <time>2025-05-04T11:24:45Z</time>
      </trkpt>
      <trkpt lat="45.9853227250278" lon="8.04292886517942">
        <ele>1824.46</ele>
        <time>2025-05-04T11:25:01Z</time>
      </trkpt>
      <trkpt lat="45.985237397253513" lon="8.042968260124326">
        <ele>1821.3399999999999</ele>
        <time>2025-05-04T11:25:14Z</time>
      </trkpt>
      <trkpt lat="45.985208563506603" lon="8.043035818263888">
        <ele>1820.97</ele>
        <time>2025-05-04T11:25:55Z</time>
      </trkpt>
      <trkpt lat="45.985137820243835" lon="8.042985862120986">
        <ele>1817.99</ele>
        <time>2025-05-04T11:26:10Z</time>
      </trkpt>
      <trkpt lat="45.985080990940332" lon="8.042935151606798">
        <ele>1814.25</ele>
        <time>2025-05-04T11:26:23Z</time>
      </trkpt>
      <trkpt lat="45.984978228807449" lon="8.042951915413141">
        <ele>1811.9100000000001</ele>
        <time>2025-05-04T11:26:35Z</time>
      </trkpt>
      <trkpt lat="45.984878903254867" lon="8.042950993403792">
        <ele>1809.27</ele>
        <time>2025-05-04T11:26:45Z</time>
      </trkpt>
      <trkpt lat="45.984767759218812" lon="8.042919812723994">
        <ele>1805.78</ele>
        <time>2025-05-04T11:26:56Z</time>
      </trkpt>
      <trkpt lat="45.984662650153041" lon="8.042886033654213">
        <ele>1803.46</ele>
        <time>2025-05-04T11:27:09Z</time>
      </trkpt>
      <trkpt lat="45.984593750908971" lon="8.042895253747702">
        <ele>1799.75</ele>
        <time>2025-05-04T11:28:04Z</time>
      </trkpt>
      <trkpt lat="45.98459274508059" lon="8.042805315926671">
        <ele>1799.6900000000001</ele>
        <time>2025-05-04T11:28:17Z</time>
      </trkpt>
      <trkpt lat="45.984662817791104" lon="8.042707750573754">
        <ele>1797.0599999999999</ele>
        <time>2025-05-04T11:28:40Z</time>
      </trkpt>
      <trkpt lat="45.984722077846527" lon="8.042612113058567">
        <ele>1794.29</ele>
        <time>2025-05-04T11:28:59Z</time>
      </trkpt>
      <trkpt lat="45.984772117808461" lon="8.042494682595134">
        <ele>1791.28</ele>
        <time>2025-05-04T11:29:13Z</time>
      </trkpt>
      <trkpt lat="45.984791144728661" lon="8.042377252131701">
        <ele>1788.24</ele>
        <time>2025-05-04T11:29:31Z</time>
      </trkpt>
      <trkpt lat="45.984806902706623" lon="8.042254876345396">
        <ele>1786</ele>
        <time>2025-05-04T11:30:00Z</time>
      </trkpt>
      <trkpt lat="45.984857361763716" lon="8.042148174718022">
        <ele>1783.3099999999999</ele>
        <time>2025-05-04T11:30:18Z</time>
      </trkpt>
      <trkpt lat="45.984914777800441" lon="8.042041305452585">
        <ele>1780.73</ele>
        <time>2025-05-04T11:30:30Z</time>
      </trkpt>
      <trkpt lat="45.984922405332327" lon="8.041911805048585">
        <ele>1778.1199999999999</ele>
        <time>2025-05-04T11:30:45Z</time>
      </trkpt>
      <trkpt lat="45.984918298199773" lon="8.041782975196838">
        <ele>1776.8099999999999</ele>
        <time>2025-05-04T11:30:57Z</time>
      </trkpt>
      <trkpt lat="45.98489910364151" lon="8.041662108153105">
        <ele>1772.7</ele>
        <time>2025-05-04T11:31:15Z</time>
      </trkpt>
      <trkpt lat="45.984876723960042" lon="8.041564291343093">
        <ele>1768.5</ele>
        <time>2025-05-04T11:31:45Z</time>
      </trkpt>
      <trkpt lat="45.984879657626152" lon="8.041457924991846">
        <ele>1764.52</ele>
        <time>2025-05-04T11:32:06Z</time>
      </trkpt>
      <trkpt lat="45.984926093369722" lon="8.041368406265974">
        <ele>1760.3099999999999</ele>
        <time>2025-05-04T11:32:29Z</time>
      </trkpt>
      <trkpt lat="45.984998848289251" lon="8.041331022977829">
        <ele>1757.3599999999999</ele>
        <time>2025-05-04T11:32:45Z</time>
      </trkpt>
      <trkpt lat="45.984988790005445" lon="8.041193392127752">
        <ele>1756.1099999999999</ele>
        <time>2025-05-04T11:32:58Z</time>
      </trkpt>
      <trkpt lat="45.984989712014794" lon="8.041060622781515">
        <ele>1755.27</ele>
        <time>2025-05-04T11:33:12Z</time>
      </trkpt>
      <trkpt lat="45.984992980957031" lon="8.040926847606897">
        <ele>1752.55</ele>
        <time>2025-05-04T11:33:34Z</time>
      </trkpt>
      <trkpt lat="45.985067160800099" lon="8.040853422135115">
        <ele>1749.6600000000001</ele>
        <time>2025-05-04T11:33:50Z</time>
      </trkpt>
      <trkpt lat="45.985134216025472" lon="8.040785947814584">
        <ele>1746.6300000000001</ele>
        <time>2025-05-04T11:34:09Z</time>
      </trkpt>
      <trkpt lat="45.985203450545669" lon="8.040718222036958">
        <ele>1744.3299999999999</ele>
        <time>2025-05-04T11:34:24Z</time>
      </trkpt>
      <trkpt lat="45.985181070864201" lon="8.040589224547148">
        <ele>1740.4400000000001</ele>
        <time>2025-05-04T11:34:42Z</time>
      </trkpt>
      <trkpt lat="45.985096162185073" lon="8.040510099381208">
        <ele>1737.21</ele>
        <time>2025-05-04T11:34:58Z</time>
      </trkpt>
      <trkpt lat="45.985043440014124" lon="8.040408343076706">
        <ele>1733.8599999999999</ele>
        <time>2025-05-04T11:35:15Z</time>
      </trkpt>
      <trkpt lat="45.985005050897598" lon="8.040285296738148">
        <ele>1730.78</ele>
        <time>2025-05-04T11:35:30Z</time>
      </trkpt>
      <trkpt lat="45.984968841075897" lon="8.040159568190575">
        <ele>1728.4400000000001</ele>
        <time>2025-05-04T11:35:42Z</time>
      </trkpt>
      <trkpt lat="45.984926847741008" lon="8.040046328678727">
        <ele>1726.23</ele>
        <time>2025-05-04T11:35:57Z</time>
      </trkpt>
      <trkpt lat="45.984861887991428" lon="8.039933256804943">
        <ele>1724.3</ele>
        <time>2025-05-04T11:37:00Z</time>
      </trkpt>
      <trkpt lat="45.984792318195105" lon="8.039840217679739">
        <ele>1723.95</ele>
        <time>2025-05-04T11:37:11Z</time>
      </trkpt>
      <trkpt lat="45.984723838046193" lon="8.039737539365888">
        <ele>1723.96</ele>
        <time>2025-05-04T11:37:22Z</time>
      </trkpt>
      <trkpt lat="45.984656447544694" lon="8.039636956527829">
        <ele>1722.4100000000001</ele>
        <time>2025-05-04T11:37:34Z</time>
      </trkpt>
      <trkpt lat="45.984593164175749" lon="8.039534026756883">
        <ele>1719.8199999999999</ele>
        <time>2025-05-04T11:37:52Z</time>
      </trkpt>
      <trkpt lat="45.984527450054884" lon="8.039440149441361">
        <ele>1715.4100000000001</ele>
        <time>2025-05-04T11:38:17Z</time>
      </trkpt>
      <trkpt lat="45.984443798661232" lon="8.039333866909146">
        <ele>1711.8800000000001</ele>
        <time>2025-05-04T11:38:35Z</time>
      </trkpt>
      <trkpt lat="45.98434648476541" lon="8.039238480851054">
        <ele>1709.5</ele>
        <time>2025-05-04T11:38:49Z</time>
      </trkpt>
      <trkpt lat="45.984265431761742" lon="8.039158601313829">
        <ele>1707.24</ele>
        <time>2025-05-04T11:39:03Z</time>
      </trkpt>
      <trkpt lat="45.98417398519814" lon="8.039159439504147">
        <ele>1704.72</ele>
        <time>2025-05-04T11:39:18Z</time>
      </trkpt>
      <trkpt lat="45.984083376824856" lon="8.039149716496468">
        <ele>1701.4300000000001</ele>
        <time>2025-05-04T11:39:34Z</time>
      </trkpt>
      <trkpt lat="45.983999138697982" lon="8.039141250774264">
        <ele>1698.1700000000001</ele>
        <time>2025-05-04T11:39:52Z</time>
      </trkpt>
      <trkpt lat="45.983929485082626" lon="8.039064472541213">
        <ele>1694.1900000000001</ele>
        <time>2025-05-04T11:40:15Z</time>
      </trkpt>
      <trkpt lat="45.983850192278624" lon="8.039052151143551">
        <ele>1690.1199999999999</ele>
        <time>2025-05-04T11:40:35Z</time>
      </trkpt>
      <trkpt lat="45.983867039903998" lon="8.038918040692806">
        <ele>1686.1800000000001</ele>
        <time>2025-05-04T11:40:56Z</time>
      </trkpt>
      <trkpt lat="45.983918337151408" lon="8.038792479783297">
        <ele>1683.0899999999999</ele>
        <time>2025-05-04T11:41:17Z</time>
      </trkpt>
      <trkpt lat="45.983926299959421" lon="8.038665913045406">
        <ele>1679.5</ele>
        <time>2025-05-04T11:41:43Z</time>
      </trkpt>
      <trkpt lat="45.983937447890639" lon="8.038507914170623">
        <ele>1675.8199999999999</ele>
        <time>2025-05-04T11:42:01Z</time>
      </trkpt>
      <trkpt lat="45.983931245282292" lon="8.038385957479477">
        <ele>1672.6099999999999</ele>
        <time>2025-05-04T11:42:21Z</time>
      </trkpt>
      <trkpt lat="45.983842564746737" lon="8.038376066833735">
        <ele>1668.3399999999999</ele>
        <time>2025-05-04T11:42:43Z</time>
      </trkpt>
      <trkpt lat="45.98378942348063" lon="8.038266599178314">
        <ele>1663.6199999999999</ele>
        <time>2025-05-04T11:43:08Z</time>
      </trkpt>
      <trkpt lat="45.983783137053251" lon="8.03811346180737">
        <ele>1660.78</ele>
        <time>2025-05-04T11:43:30Z</time>
      </trkpt>
      <trkpt lat="45.983751453459263" lon="8.038094602525234">
        <ele>1659.95</ele>
        <time>2025-05-04T11:44:53Z</time>
      </trkpt>
      <trkpt lat="45.983780790120363" lon="8.037940291687846">
        <ele>1657.27</ele>
        <time>2025-05-04T11:45:11Z</time>
      </trkpt>
      <trkpt lat="45.983699485659599" lon="8.037886898964644">
        <ele>1654.1500000000001</ele>
        <time>2025-05-04T11:45:28Z</time>
      </trkpt>
      <trkpt lat="45.983642740175128" lon="8.038006592541933">
        <ele>1652.7</ele>
        <time>2025-05-04T11:45:43Z</time>
      </trkpt>
      <trkpt lat="45.983562022447586" lon="8.038084292784333">
        <ele>1650.9200000000001</ele>
        <time>2025-05-04T11:46:02Z</time>
      </trkpt>
      <trkpt lat="45.983473593369126" lon="8.038070295006037">
        <ele>1644.5799999999999</ele>
        <time>2025-05-04T11:46:23Z</time>
      </trkpt>
      <trkpt lat="45.983401425182819" lon="8.038019919767976">
        <ele>1640.25</ele>
        <time>2025-05-04T11:46:42Z</time>
      </trkpt>
      <trkpt lat="45.983361192047596" lon="8.037900645285845">
        <ele>1636.51</ele>
        <time>2025-05-04T11:47:03Z</time>
      </trkpt>
      <trkpt lat="45.983285419642925" lon="8.037871392443776">
        <ele>1633.4300000000001</ele>
        <time>2025-05-04T11:47:21Z</time>
      </trkpt>
      <trkpt lat="45.983242252841592" lon="8.037762176245451">
        <ele>1629.76</ele>
        <time>2025-05-04T11:47:38Z</time>
      </trkpt>
      <trkpt lat="45.98326999694109" lon="8.037607949227095">
        <ele>1626.5599999999999</ele>
        <time>2025-05-04T11:47:54Z</time>
      </trkpt>
      <trkpt lat="45.98330176435411" lon="8.037460679188371">
        <ele>1623.7</ele>
        <time>2025-05-04T11:48:10Z</time>
      </trkpt>
      <trkpt lat="45.983344092965126" lon="8.037337632849813">
        <ele>1620.99</ele>
        <time>2025-05-04T11:48:27Z</time>
      </trkpt>
      <trkpt lat="45.983367394655943" lon="8.03719924762845">
        <ele>1616.52</ele>
        <time>2025-05-04T11:48:49Z</time>
      </trkpt>
      <trkpt lat="45.983399832621217" lon="8.037075027823448">
        <ele>1613.5899999999999</ele>
        <time>2025-05-04T11:49:03Z</time>
      </trkpt>
      <trkpt lat="45.983441909775138" lon="8.036951730027795">
        <ele>1610.9400000000001</ele>
        <time>2025-05-04T11:49:17Z</time>
      </trkpt>
      <trkpt lat="45.983494129031897" lon="8.036836227402091">
        <ele>1607.8199999999999</ele>
        <time>2025-05-04T11:49:29Z</time>
      </trkpt>
      <trkpt lat="45.983563363552094" lon="8.036740757524967">
        <ele>1605.4400000000001</ele>
        <time>2025-05-04T11:49:43Z</time>
      </trkpt>
      <trkpt lat="45.983624383807182" lon="8.036646293476224">
        <ele>1602.1600000000001</ele>
        <time>2025-05-04T11:50:00Z</time>
      </trkpt>
      <trkpt lat="45.98367752507329" lon="8.036553841084242">
        <ele>1599.3399999999999</ele>
        <time>2025-05-04T11:50:20Z</time>
      </trkpt>
      <trkpt lat="45.983653804287314" lon="8.036443954333663">
        <ele>1595.05</ele>
        <time>2025-05-04T11:50:40Z</time>
      </trkpt>
      <trkpt lat="45.983746005222201" lon="8.03640665486455">
        <ele>1591.78</ele>
        <time>2025-05-04T11:50:57Z</time>
      </trkpt>
      <trkpt lat="45.983850611373782" lon="8.036420568823814">
        <ele>1589.01</ele>
        <time>2025-05-04T11:51:17Z</time>
      </trkpt>
      <trkpt lat="45.983834518119693" lon="8.036309340968728">
        <ele>1585.1099999999999</ele>
        <time>2025-05-04T11:52:55Z</time>
      </trkpt>
      <trkpt lat="45.983822029083967" lon="8.036220660433173">
        <ele>1582.71</ele>
        <time>2025-05-04T11:59:04Z</time>
      </trkpt>
      <trkpt lat="45.983760003000498" lon="8.036106834188104">
        <ele>1580.49</ele>
        <time>2025-05-04T11:59:18Z</time>
      </trkpt>
      <trkpt lat="45.983728906139731" lon="8.035998623818159">
        <ele>1577.5599999999999</ele>
        <time>2025-05-04T11:59:31Z</time>
      </trkpt>
      <trkpt lat="45.98382948897779" lon="8.036022260785103">
        <ele>1574.9200000000001</ele>
        <time>2025-05-04T11:59:48Z</time>
      </trkpt>
      <trkpt lat="45.983922444283962" lon="8.036000048741698">
        <ele>1570.6300000000001</ele>
        <time>2025-05-04T12:00:20Z</time>
      </trkpt>
      <trkpt lat="45.984054123982787" lon="8.035994935780764">
        <ele>1566.3</ele>
        <time>2025-05-04T12:00:36Z</time>
      </trkpt>
      <trkpt lat="45.984010454267263" lon="8.03593123331666">
        <ele>1563.8800000000001</ele>
        <time>2025-05-04T12:00:52Z</time>
      </trkpt>
      <trkpt lat="45.983954463154078" lon="8.035804834216833">
        <ele>1559.8299999999999</ele>
        <time>2025-05-04T12:01:07Z</time>
      </trkpt>
      <trkpt lat="45.983881121501327" lon="8.035722859203816">
        <ele>1556.8800000000001</ele>
        <time>2025-05-04T12:01:22Z</time>
      </trkpt>
      <trkpt lat="45.983816664665937" lon="8.035613894462585">
        <ele>1554.8900000000001</ele>
        <time>2025-05-04T12:01:38Z</time>
      </trkpt>
      <trkpt lat="45.983747262507677" lon="8.035516999661923">
        <ele>1551.8299999999999</ele>
        <time>2025-05-04T12:01:59Z</time>
      </trkpt>
      <trkpt lat="45.983727145940065" lon="8.035412142053247">
        <ele>1548.74</ele>
        <time>2025-05-04T12:02:31Z</time>
      </trkpt>
      <trkpt lat="45.983792692422867" lon="8.0354093760252">
        <ele>1546.3800000000001</ele>
        <time>2025-05-04T12:02:45Z</time>
      </trkpt>
      <trkpt lat="45.983740221709013" lon="8.035330167040229">
        <ele>1543.8699999999999</ele>
        <time>2025-05-04T12:03:02Z</time>
      </trkpt>
      <trkpt lat="45.983710633590817" lon="8.035277863964438">
        <ele>1541.27</ele>
        <time>2025-05-04T12:03:57Z</time>
      </trkpt>
      <trkpt lat="45.983689678832889" lon="8.035221537575126">
        <ele>1540.3199999999999</ele>
        <time>2025-05-04T12:05:23Z</time>
      </trkpt>
      <trkpt lat="45.983602507039905" lon="8.035146184265614">
        <ele>1537.4300000000001</ele>
        <time>2025-05-04T12:05:40Z</time>
      </trkpt>
      <trkpt lat="45.983576606959105" lon="8.035058425739408">
        <ele>1534.3499999999999</ele>
        <time>2025-05-04T12:05:53Z</time>
      </trkpt>
      <trkpt lat="45.983569733798504" lon="8.034982234239578">
        <ele>1531.04</ele>
        <time>2025-05-04T12:06:12Z</time>
      </trkpt>
      <trkpt lat="45.983492955565453" lon="8.034950718283653">
        <ele>1526.97</ele>
        <time>2025-05-04T12:06:34Z</time>
      </trkpt>
      <trkpt lat="45.983406789600849" lon="8.034980893135071">
        <ele>1524.0599999999999</ele>
        <time>2025-05-04T12:06:47Z</time>
      </trkpt>
      <trkpt lat="45.983318947255611" lon="8.035008301958442">
        <ele>1521.79</ele>
        <time>2025-05-04T12:06:58Z</time>
      </trkpt>
      <trkpt lat="45.983253484591842" lon="8.035082397982478">
        <ele>1520.1600000000001</ele>
        <time>2025-05-04T12:07:10Z</time>
      </trkpt>
      <trkpt lat="45.983171593397856" lon="8.035127576440573">
        <ele>1518.1400000000001</ele>
        <time>2025-05-04T12:07:24Z</time>
      </trkpt>
      <trkpt lat="45.983097832649946" lon="8.03511911071837">
        <ele>1515.5899999999999</ele>
        <time>2025-05-04T12:07:35Z</time>
      </trkpt>
      <trkpt lat="45.983050391077995" lon="8.035223297774792">
        <ele>1512.8499999999999</ele>
        <time>2025-05-04T12:07:55Z</time>
      </trkpt>
      <trkpt lat="45.982949975878" lon="8.03525104187429">
        <ele>1509.7</ele>
        <time>2025-05-04T12:08:31Z</time>
      </trkpt>
      <trkpt lat="45.982857020571828" lon="8.03528037853539">
        <ele>1507.1600000000001</ele>
        <time>2025-05-04T12:08:46Z</time>
      </trkpt>
      <trkpt lat="45.982768340036273" lon="8.035282976925373">
        <ele>1503.6900000000001</ele>
        <time>2025-05-04T12:09:01Z</time>
      </trkpt>
      <trkpt lat="45.982676222920418" lon="8.03532874211669">
        <ele>1501.8399999999999</ele>
        <time>2025-05-04T12:09:14Z</time>
      </trkpt>
      <trkpt lat="45.982595840469003" lon="8.03539470769465">
        <ele>1499.1700000000001</ele>
        <time>2025-05-04T12:09:33Z</time>
      </trkpt>
      <trkpt lat="45.982509842142463" lon="8.035441394895315">
        <ele>1497.5799999999999</ele>
        <time>2025-05-04T12:09:51Z</time>
      </trkpt>
      <trkpt lat="45.982426777482033" lon="8.035495290532708">
        <ele>1495.4400000000001</ele>
        <time>2025-05-04T12:10:05Z</time>
      </trkpt>
      <trkpt lat="45.982339438050985" lon="8.035554634407163">
        <ele>1493.98</ele>
        <time>2025-05-04T12:10:21Z</time>
      </trkpt>
      <trkpt lat="45.982268694788218" lon="8.03566100075841">
        <ele>1492.53</ele>
        <time>2025-05-04T12:10:33Z</time>
      </trkpt>
      <trkpt lat="45.982165429741144" lon="8.035691427066922">
        <ele>1489.98</ele>
        <time>2025-05-04T12:10:50Z</time>
      </trkpt>
      <trkpt lat="45.982075994834304" lon="8.035769127309322">
        <ele>1489.98</ele>
        <time>2025-05-04T12:11:03Z</time>
      </trkpt>
      <trkpt lat="45.981996785849333" lon="8.035841882228851">
        <ele>1489.25</ele>
        <time>2025-05-04T12:11:13Z</time>
      </trkpt>
      <trkpt lat="45.981896203011274" lon="8.035902567207813">
        <ele>1488.6500000000001</ele>
        <time>2025-05-04T12:11:27Z</time>
      </trkpt>
      <trkpt lat="45.981810539960861" lon="8.0359688680619">
        <ele>1486.5899999999999</ele>
        <time>2025-05-04T12:11:46Z</time>
      </trkpt>
      <trkpt lat="45.981708029285073" lon="8.03603382781148">
        <ele>1485.1099999999999</ele>
        <time>2025-05-04T12:11:59Z</time>
      </trkpt>
      <trkpt lat="45.981595627963543" lon="8.036051597446203">
        <ele>1482.5899999999999</ele>
        <time>2025-05-04T12:12:16Z</time>
      </trkpt>
      <trkpt lat="45.981484735384583" lon="8.036137763410807">
        <ele>1480.9000000000001</ele>
        <time>2025-05-04T12:12:33Z</time>
      </trkpt>
      <trkpt lat="45.981396473944187" lon="8.036171793937683">
        <ele>1478.5</ele>
        <time>2025-05-04T12:12:49Z</time>
      </trkpt>
      <trkpt lat="45.981320450082421" lon="8.036256199702621">
        <ele>1475.52</ele>
        <time>2025-05-04T12:13:08Z</time>
      </trkpt>
      <trkpt lat="45.981192709878087" lon="8.036367846652865">
        <ele>1472.9300000000001</ele>
        <time>2025-05-04T12:13:26Z</time>
      </trkpt>
      <trkpt lat="45.980987604707479" lon="8.036396261304617">
        <ele>1468.8900000000001</ele>
        <time>2025-05-04T12:13:44Z</time>
      </trkpt>
      <trkpt lat="45.98090898245573" lon="8.036445379257202">
        <ele>1465.8299999999999</ele>
        <time>2025-05-04T12:14:13Z</time>
      </trkpt>
      <trkpt lat="45.980792306363583" lon="8.036475386470556">
        <ele>1463.7</ele>
        <time>2025-05-04T12:14:34Z</time>
      </trkpt>
      <trkpt lat="45.980685604736209" lon="8.036506148055196">
        <ele>1460.8499999999999</ele>
        <time>2025-05-04T12:14:54Z</time>
      </trkpt>
      <trkpt lat="45.980599103495479" lon="8.036561887711287">
        <ele>1457.9300000000001</ele>
        <time>2025-05-04T12:15:15Z</time>
      </trkpt>
      <trkpt lat="45.980502208694816" lon="8.036606311798096">
        <ele>1454.8199999999999</ele>
        <time>2025-05-04T12:15:41Z</time>
      </trkpt>
      <trkpt lat="45.980478907003999" lon="8.036756264045835">
        <ele>1452.26</ele>
        <time>2025-05-04T12:15:58Z</time>
      </trkpt>
      <trkpt lat="45.980464490130544" lon="8.036892972886562">
        <ele>1447.8599999999999</ele>
        <time>2025-05-04T12:16:20Z</time>
      </trkpt>
      <trkpt lat="45.980412187054753" lon="8.037046864628792">
        <ele>1444.8800000000001</ele>
        <time>2025-05-04T12:16:35Z</time>
      </trkpt>
      <trkpt lat="45.980314705520868" lon="8.037196649238467">
        <ele>1443.6099999999999</ele>
        <time>2025-05-04T12:16:54Z</time>
      </trkpt>
      <trkpt lat="45.980216385796666" lon="8.037146106362343">
        <ele>1442.95</ele>
        <time>2025-05-04T12:17:18Z</time>
      </trkpt>
      <trkpt lat="45.980130974203348" lon="8.037089947611094">
        <ele>1440.03</ele>
        <time>2025-05-04T12:17:35Z</time>
      </trkpt>
      <trkpt lat="45.980047574266791" lon="8.037032280117273">
        <ele>1437.0799999999999</ele>
        <time>2025-05-04T12:17:54Z</time>
      </trkpt>
      <trkpt lat="45.979941375553608" lon="8.037017611786723">
        <ele>1434.4200000000001</ele>
        <time>2025-05-04T12:18:13Z</time>
      </trkpt>
      <trkpt lat="45.979852192103863" lon="8.03694661706686">
        <ele>1430.0799999999999</ele>
        <time>2025-05-04T12:18:37Z</time>
      </trkpt>
      <trkpt lat="45.979728726670146" lon="8.036925494670868">
        <ele>1426.8299999999999</ele>
        <time>2025-05-04T12:18:58Z</time>
      </trkpt>
      <trkpt lat="45.979622444137931" lon="8.036919375881553">
        <ele>1423.9300000000001</ele>
        <time>2025-05-04T12:19:18Z</time>
      </trkpt>
      <trkpt lat="45.979525884613395" lon="8.036936558783054">
        <ele>1421.24</ele>
        <time>2025-05-04T12:19:39Z</time>
      </trkpt>
      <trkpt lat="45.979406107217073" lon="8.036957178264856">
        <ele>1418.9000000000001</ele>
        <time>2025-05-04T12:19:54Z</time>
      </trkpt>
      <trkpt lat="45.979359922930598" lon="8.037067232653499">
        <ele>1414.99</ele>
        <time>2025-05-04T12:20:19Z</time>
      </trkpt>
      <trkpt lat="45.979363359510899" lon="8.037175359204412">
        <ele>1411.6500000000001</ele>
        <time>2025-05-04T12:20:45Z</time>
      </trkpt>
      <trkpt lat="45.979346595704556" lon="8.037218358367682">
        <ele>1409.3499999999999</ele>
        <time>2025-05-04T12:21:07Z</time>
      </trkpt>
      <trkpt lat="45.97927643917501" lon="8.037247192114592">
        <ele>1406.03</ele>
        <time>2025-05-04T12:21:32Z</time>
      </trkpt>
      <trkpt lat="45.979241821914911" lon="8.037328580394387">
        <ele>1403.3800000000001</ele>
        <time>2025-05-04T12:21:58Z</time>
      </trkpt>
      <trkpt lat="45.979175269603729" lon="8.037394545972347">
        <ele>1400.3</ele>
        <time>2025-05-04T12:22:21Z</time>
      </trkpt>
      <trkpt lat="45.979074435308576" lon="8.037364119663835">
        <ele>1397.72</ele>
        <time>2025-05-04T12:22:40Z</time>
      </trkpt>
      <trkpt lat="45.979008553549647" lon="8.037332771345973">
        <ele>1394.02</ele>
        <time>2025-05-04T12:23:07Z</time>
      </trkpt>
      <trkpt lat="45.978920124471188" lon="8.037418518215418">
        <ele>1390.6900000000001</ele>
        <time>2025-05-04T12:23:31Z</time>
      </trkpt>
      <trkpt lat="45.97884401679039" lon="8.037333525717259">
        <ele>1389.0899999999999</ele>
        <time>2025-05-04T12:23:54Z</time>
      </trkpt>
      <trkpt lat="45.978746199980378" lon="8.037325479090214">
        <ele>1386.05</ele>
        <time>2025-05-04T12:24:19Z</time>
      </trkpt>
      <trkpt lat="45.978669002652168" lon="8.037398736923933">
        <ele>1383.7</ele>
        <time>2025-05-04T12:24:43Z</time>
      </trkpt>
      <trkpt lat="45.978592308238149" lon="8.037360934540629">
        <ele>1379.3900000000001</ele>
        <time>2025-05-04T12:25:07Z</time>
      </trkpt>
      <trkpt lat="45.978521481156349" lon="8.037307038903236">
        <ele>1376.1900000000001</ele>
        <time>2025-05-04T12:25:27Z</time>
      </trkpt>
      <trkpt lat="45.978543441742659" lon="8.037164881825447">
        <ele>1374.2</ele>
        <time>2025-05-04T12:25:44Z</time>
      </trkpt>
      <trkpt lat="45.9785430226475" lon="8.03701501339674">
        <ele>1372.6400000000001</ele>
        <time>2025-05-04T12:26:00Z</time>
      </trkpt>
      <trkpt lat="45.978505974635482" lon="8.036877131089568">
        <ele>1370.8399999999999</ele>
        <time>2025-05-04T12:26:31Z</time>
      </trkpt>
      <trkpt lat="45.978528186678886" lon="8.036776045337319">
        <ele>1366.3800000000001</ele>
        <time>2025-05-04T12:26:49Z</time>
      </trkpt>
      <trkpt lat="45.978451240807772" lon="8.036771854385734">
        <ele>1363.5699999999999</ele>
        <time>2025-05-04T12:27:12Z</time>
      </trkpt>
      <trkpt lat="45.978419473394752" lon="8.036749642342329">
        <ele>1360.0899999999999</ele>
        <time>2025-05-04T12:27:47Z</time>
      </trkpt>
      <trkpt lat="45.978440511971712" lon="8.036603126674891">
        <ele>1356.3299999999999</ele>
        <time>2025-05-04T12:28:14Z</time>
      </trkpt>
      <trkpt lat="45.978454258292913" lon="8.036474129185081">
        <ele>1352.54</ele>
        <time>2025-05-04T12:28:38Z</time>
      </trkpt>
      <trkpt lat="45.978382173925638" lon="8.036414198577404">
        <ele>1348.1900000000001</ele>
        <time>2025-05-04T12:29:09Z</time>
      </trkpt>
      <trkpt lat="45.978288631886244" lon="8.036388298496604">
        <ele>1343.6800000000001</ele>
        <time>2025-05-04T12:29:25Z</time>
      </trkpt>
      <trkpt lat="45.978190815076232" lon="8.036461640149355">
        <ele>1338.48</ele>
        <time>2025-05-04T12:29:46Z</time>
      </trkpt>
      <trkpt lat="45.97811252810061" lon="8.03657965734601">
        <ele>1335.4100000000001</ele>
        <time>2025-05-04T12:30:03Z</time>
      </trkpt>
      <trkpt lat="45.978103475645185" lon="8.036454934626818">
        <ele>1332.4300000000001</ele>
        <time>2025-05-04T12:30:21Z</time>
      </trkpt>
      <trkpt lat="45.978098697960377" lon="8.036285368725658">
        <ele>1329.8800000000001</ele>
        <time>2025-05-04T12:30:37Z</time>
      </trkpt>
      <trkpt lat="45.978042623028159" lon="8.036222252994776">
        <ele>1325.03</ele>
        <time>2025-05-04T12:31:00Z</time>
      </trkpt>
      <trkpt lat="45.97795519977808" lon="8.036294672638178">
        <ele>1321.52</ele>
        <time>2025-05-04T12:31:18Z</time>
      </trkpt>
      <trkpt lat="45.977872051298618" lon="8.036396596580744">
        <ele>1317.6800000000001</ele>
        <time>2025-05-04T12:31:38Z</time>
      </trkpt>
      <trkpt lat="45.977764679118991" lon="8.036423334851861">
        <ele>1313.3499999999999</ele>
        <time>2025-05-04T12:31:58Z</time>
      </trkpt>
      <trkpt lat="45.977733498439193" lon="8.036258881911635">
        <ele>1309.5799999999999</ele>
        <time>2025-05-04T12:32:16Z</time>
      </trkpt>
      <trkpt lat="45.977774988859892" lon="8.036158885806799">
        <ele>1307.99</ele>
        <time>2025-05-04T12:32:53Z</time>
      </trkpt>
      <trkpt lat="45.977834081277251" lon="8.036228036507964">
        <ele>1308.3699999999999</ele>
        <time>2025-05-04T12:33:22Z</time>
      </trkpt>
      <trkpt lat="45.977837266400456" lon="8.036262402310967">
        <ele>1309.1199999999999</ele>
        <time>2025-05-04T12:33:55Z</time>
      </trkpt>
      <trkpt lat="45.977817736566067" lon="8.036098033189774">
        <ele>1309.22</ele>
        <time>2025-05-04T12:34:10Z</time>
      </trkpt>
      <trkpt lat="45.977849755436182" lon="8.035889072343707">
        <ele>1310.45</ele>
        <time>2025-05-04T12:34:24Z</time>
      </trkpt>
      <trkpt lat="45.977881690487266" lon="8.035734258592129">
        <ele>1309.47</ele>
        <time>2025-05-04T12:34:38Z</time>
      </trkpt>
      <trkpt lat="45.977957546710968" lon="8.035635687410832">
        <ele>1308.97</ele>
        <time>2025-05-04T12:34:51Z</time>
      </trkpt>
      <trkpt lat="45.978044383227825" lon="8.035534517839551">
        <ele>1310.1800000000001</ele>
        <time>2025-05-04T12:35:03Z</time>
      </trkpt>
      <trkpt lat="45.978111019358039" lon="8.035424379631877">
        <ele>1310.6700000000001</ele>
        <time>2025-05-04T12:35:14Z</time>
      </trkpt>
      <trkpt lat="45.978194922208786" lon="8.035356486216188">
        <ele>1311.3199999999999</ele>
        <time>2025-05-04T12:35:23Z</time>
      </trkpt>
      <trkpt lat="45.978250410407782" lon="8.035266632214189">
        <ele>1310.6800000000001</ele>
        <time>2025-05-04T12:35:36Z</time>
      </trkpt>
      <trkpt lat="45.978300282731652" lon="8.035313989967108">
        <ele>1311.52</ele>
        <time>2025-05-04T12:37:31Z</time>
      </trkpt>
      <trkpt lat="45.978406146168709" lon="8.035253221169114">
        <ele>1312.6199999999999</ele>
        <time>2025-05-04T12:37:42Z</time>
      </trkpt>
      <trkpt lat="45.978503627702594" lon="8.035158086568117">
        <ele>1313.05</ele>
        <time>2025-05-04T12:37:51Z</time>
      </trkpt>
      <trkpt lat="45.978542771190405" lon="8.035047529265285">
        <ele>1312.29</ele>
        <time>2025-05-04T12:38:13Z</time>
      </trkpt>
      <trkpt lat="45.978570934385061" lon="8.034936469048262">
        <ele>1312</ele>
        <time>2025-05-04T12:38:30Z</time>
      </trkpt>
      <trkpt lat="45.978560540825129" lon="8.034806633368135">
        <ele>1311.02</ele>
        <time>2025-05-04T12:38:51Z</time>
      </trkpt>
      <trkpt lat="45.978658441454172" lon="8.034743601456285">
        <ele>1311.3599999999999</ele>
        <time>2025-05-04T12:41:06Z</time>
      </trkpt>
      <trkpt lat="45.978704206645489" lon="8.034693142399192">
        <ele>1313.51</ele>
        <time>2025-05-04T12:41:54Z</time>
      </trkpt>
      <trkpt lat="45.978620136156678" lon="8.034767154604197">
        <ele>1310.0899999999999</ele>
        <time>2025-05-04T12:42:17Z</time>
      </trkpt>
      <trkpt lat="45.978596666827798" lon="8.034892380237579">
        <ele>1308.6800000000001</ele>
        <time>2025-05-04T12:42:30Z</time>
      </trkpt>
      <trkpt lat="45.978589374572039" lon="8.034960608929396">
        <ele>1308.55</ele>
        <time>2025-05-04T12:43:56Z</time>
      </trkpt>
      <trkpt lat="45.97859675064683" lon="8.035088432952762">
        <ele>1308.3099999999999</ele>
        <time>2025-05-04T12:44:43Z</time>
      </trkpt>
      <trkpt lat="45.978562217205763" lon="8.035211060196161">
        <ele>1308.23</ele>
        <time>2025-05-04T12:44:53Z</time>
      </trkpt>
      <trkpt lat="45.978475799784064" lon="8.035301836207509">
        <ele>1308.26</ele>
        <time>2025-05-04T12:45:04Z</time>
      </trkpt>
      <trkpt lat="45.97838175483048" lon="8.035345338284969">
        <ele>1307.0999999999999</ele>
        <time>2025-05-04T12:45:14Z</time>
      </trkpt>
      <trkpt lat="45.97827622666955" lon="8.035388588905335">
        <ele>1305.77</ele>
        <time>2025-05-04T12:45:24Z</time>
      </trkpt>
      <trkpt lat="45.978206321597099" lon="8.035490345209837">
        <ele>1304.74</ele>
        <time>2025-05-04T12:45:33Z</time>
      </trkpt>
      <trkpt lat="45.978164747357368" lon="8.035610290244222">
        <ele>1304.0899999999999</ele>
        <time>2025-05-04T12:45:43Z</time>
      </trkpt>
      <trkpt lat="45.97808176651597" lon="8.035728977993131">
        <ele>1302.6400000000001</ele>
        <time>2025-05-04T12:47:10Z</time>
      </trkpt>
      <trkpt lat="45.978015717118979" lon="8.035852443426848">
        <ele>1301.8499999999999</ele>
        <time>2025-05-04T12:47:23Z</time>
      </trkpt>
      <trkpt lat="45.977979172021151" lon="8.035999378189445">
        <ele>1302.6400000000001</ele>
        <time>2025-05-04T12:47:35Z</time>
      </trkpt>
      <trkpt lat="45.977927120402455" lon="8.036148073151708">
        <ele>1301.51</ele>
        <time>2025-05-04T12:47:46Z</time>
      </trkpt>
      <trkpt lat="45.977875320240855" lon="8.036279920488596">
        <ele>1300.26</ele>
        <time>2025-05-04T12:48:01Z</time>
      </trkpt>
      <trkpt lat="45.977767780423164" lon="8.036370696499944">
        <ele>1297.98</ele>
        <time>2025-05-04T12:48:14Z</time>
      </trkpt>
      <trkpt lat="45.977672226727009" lon="8.036502376198769">
        <ele>1294.5999999999999</ele>
        <time>2025-05-04T12:48:29Z</time>
      </trkpt>
      <trkpt lat="45.977550437673926" lon="8.036560714244843">
        <ele>1290.23</ele>
        <time>2025-05-04T12:48:46Z</time>
      </trkpt>
      <trkpt lat="45.977450609207153" lon="8.036643024533987">
        <ele>1286.3800000000001</ele>
        <time>2025-05-04T12:49:04Z</time>
      </trkpt>
      <trkpt lat="45.977361928671598" lon="8.036746205762029">
        <ele>1282.55</ele>
        <time>2025-05-04T12:49:18Z</time>
      </trkpt>
      <trkpt lat="45.977263441309333" lon="8.036884507164359">
        <ele>1279.6700000000001</ele>
        <time>2025-05-04T12:49:35Z</time>
      </trkpt>
      <trkpt lat="45.977145340293646" lon="8.036882914602757">
        <ele>1276.8099999999999</ele>
        <time>2025-05-04T12:49:48Z</time>
      </trkpt>
      <trkpt lat="45.97703268751502" lon="8.036924153566361">
        <ele>1274.3199999999999</ele>
        <time>2025-05-04T12:50:03Z</time>
      </trkpt>
      <trkpt lat="45.976938307285309" lon="8.037004452198744">
        <ele>1271.48</ele>
        <time>2025-05-04T12:50:19Z</time>
      </trkpt>
      <trkpt lat="45.976834204047918" lon="8.037066059187055">
        <ele>1269.03</ele>
        <time>2025-05-04T12:50:32Z</time>
      </trkpt>
      <trkpt lat="45.976720545440912" lon="8.03710930980742">
        <ele>1267.99</ele>
        <time>2025-05-04T12:50:45Z</time>
      </trkpt>
      <trkpt lat="45.976628512144089" lon="8.037178376689553">
        <ele>1266.3</ele>
        <time>2025-05-04T12:51:04Z</time>
      </trkpt>
      <trkpt lat="45.976497502997518" lon="8.037240318953991">
        <ele>1263.7</ele>
        <time>2025-05-04T12:51:23Z</time>
      </trkpt>
      <trkpt lat="45.976402619853616" lon="8.037251466885209">
        <ele>1262.02</ele>
        <time>2025-05-04T12:51:33Z</time>
      </trkpt>
      <trkpt lat="45.976318968459964" lon="8.037322545424104">
        <ele>1260.6099999999999</ele>
        <time>2025-05-04T12:51:43Z</time>
      </trkpt>
      <trkpt lat="45.976238250732422" lon="8.037394294515252">
        <ele>1259.45</ele>
        <time>2025-05-04T12:51:55Z</time>
      </trkpt>
      <trkpt lat="45.976161640137434" lon="8.037494206801057">
        <ele>1257.3099999999999</ele>
        <time>2025-05-04T12:52:07Z</time>
      </trkpt>
      <trkpt lat="45.976079162210226" lon="8.037594705820084">
        <ele>1255.98</ele>
        <time>2025-05-04T12:52:17Z</time>
      </trkpt>
      <trkpt lat="45.975991738960147" lon="8.037688583135605">
        <ele>1253.4300000000001</ele>
        <time>2025-05-04T12:52:31Z</time>
      </trkpt>
      <trkpt lat="45.975900627672672" lon="8.03777139633894">
        <ele>1250.8199999999999</ele>
        <time>2025-05-04T12:52:47Z</time>
      </trkpt>
      <trkpt lat="45.975809851661325" lon="8.037869548425078">
        <ele>1249.0599999999999</ele>
        <time>2025-05-04T12:53:00Z</time>
      </trkpt>
      <trkpt lat="45.975708514451981" lon="8.037966107949615">
        <ele>1247.26</ele>
        <time>2025-05-04T12:53:13Z</time>
      </trkpt>
      <trkpt lat="45.975633915513754" lon="8.038083706051111">
        <ele>1244.8699999999999</ele>
        <time>2025-05-04T12:53:27Z</time>
      </trkpt>
      <trkpt lat="45.975558226928115" lon="8.038184121251106">
        <ele>1241.6500000000001</ele>
        <time>2025-05-04T12:53:45Z</time>
      </trkpt>
      <trkpt lat="45.975451692938805" lon="8.03828009404242">
        <ele>1238.5699999999999</ele>
        <time>2025-05-04T12:54:03Z</time>
      </trkpt>
      <trkpt lat="45.97534641623497" lon="8.038324685767293">
        <ele>1235.74</ele>
        <time>2025-05-04T12:54:18Z</time>
      </trkpt>
      <trkpt lat="45.975253460928798" lon="8.038374474272132">
        <ele>1231.48</ele>
        <time>2025-05-04T12:54:40Z</time>
      </trkpt>
      <trkpt lat="45.975173749029636" lon="8.038456114009023">
        <ele>1227.8399999999999</ele>
        <time>2025-05-04T12:55:07Z</time>
      </trkpt>
      <trkpt lat="45.975084314122796" lon="8.038516631349921">
        <ele>1225.9000000000001</ele>
        <time>2025-05-04T12:55:24Z</time>
      </trkpt>
      <trkpt lat="45.974989598616958" lon="8.038592152297497">
        <ele>1221.99</ele>
        <time>2025-05-04T12:55:37Z</time>
      </trkpt>
      <trkpt lat="45.974892368540168" lon="8.038642946630716">
        <ele>1220.1700000000001</ele>
        <time>2025-05-04T12:55:47Z</time>
      </trkpt>
      <trkpt lat="45.974796395748854" lon="8.038663314655423">
        <ele>1218.71</ele>
        <time>2025-05-04T12:55:57Z</time>
      </trkpt>
      <trkpt lat="45.974695980548859" lon="8.038676977157593">
        <ele>1216.4400000000001</ele>
        <time>2025-05-04T12:56:11Z</time>
      </trkpt>
      <trkpt lat="45.974596487358212" lon="8.038674294948578">
        <ele>1216.9300000000001</ele>
        <time>2025-05-04T12:56:22Z</time>
      </trkpt>
      <trkpt lat="45.974539071321487" lon="8.038656022399664">
        <ele>1214.5599999999999</ele>
        <time>2025-05-04T12:56:39Z</time>
      </trkpt>
      <trkpt lat="45.974459275603294" lon="8.038716791197658">
        <ele>1212.0899999999999</ele>
        <time>2025-05-04T12:56:54Z</time>
      </trkpt>
      <trkpt lat="45.974403535947204" lon="8.038732130080462">
        <ele>1209.95</ele>
        <time>2025-05-04T12:57:13Z</time>
      </trkpt>
      <trkpt lat="45.974407978355885" lon="8.038748223334551">
        <ele>1209.3900000000001</ele>
        <time>2025-05-04T12:58:27Z</time>
      </trkpt>
      <trkpt lat="45.974391382187605" lon="8.038745205849409">
        <ele>1207.5899999999999</ele>
        <time>2025-05-04T12:59:11Z</time>
      </trkpt>
      <trkpt lat="45.974376713857055" lon="8.038750486448407">
        <ele>1209.0899999999999</ele>
        <time>2025-05-04T12:59:53Z</time>
      </trkpt>
      <trkpt lat="45.974341090768576" lon="8.03882047533989">
        <ele>1208.4400000000001</ele>
        <time>2025-05-04T13:00:19Z</time>
      </trkpt>
      <trkpt lat="45.974268419668078" lon="8.038902282714844">
        <ele>1207.4200000000001</ele>
        <time>2025-05-04T13:00:31Z</time>
      </trkpt>
      <trkpt lat="45.974198011681437" lon="8.038983670994639">
        <ele>1206.8399999999999</ele>
        <time>2025-05-04T13:00:45Z</time>
      </trkpt>
      <trkpt lat="45.974108409136534" lon="8.039050726220012">
        <ele>1204.8699999999999</ele>
        <time>2025-05-04T13:00:56Z</time>
      </trkpt>
      <trkpt lat="45.974008832126856" lon="8.039053240790963">
        <ele>1204.1199999999999</ele>
        <time>2025-05-04T13:01:05Z</time>
      </trkpt>
      <trkpt lat="45.973938088864088" lon="8.039129683747888">
        <ele>1203.5699999999999</ele>
        <time>2025-05-04T13:01:15Z</time>
      </trkpt>
      <trkpt lat="45.973883187398314" lon="8.039256250485778">
        <ele>1202.4400000000001</ele>
        <time>2025-05-04T13:01:23Z</time>
      </trkpt>
      <trkpt lat="45.973802553489804" lon="8.039270164445043">
        <ele>1201.05</ele>
        <time>2025-05-04T13:01:33Z</time>
      </trkpt>
      <trkpt lat="45.9737285412848" lon="8.039343422278762">
        <ele>1199.0599999999999</ele>
        <time>2025-05-04T13:01:44Z</time>
      </trkpt>
      <trkpt lat="45.973689062520862" lon="8.03946110419929">
        <ele>1197.6600000000001</ele>
        <time>2025-05-04T13:01:53Z</time>
      </trkpt>
      <trkpt lat="45.973630556836724" lon="8.039576103910804">
        <ele>1196.4400000000001</ele>
        <time>2025-05-04T13:02:02Z</time>
      </trkpt>
      <trkpt lat="45.973607422783971" lon="8.039691522717476">
        <ele>1195.48</ele>
        <time>2025-05-04T13:02:11Z</time>
      </trkpt>
      <trkpt lat="45.97356341779232" lon="8.03978456184268">
        <ele>1194.4000000000001</ele>
        <time>2025-05-04T13:02:20Z</time>
      </trkpt>
      <trkpt lat="45.973523017019033" lon="8.039896124973893">
        <ele>1193.76</ele>
        <time>2025-05-04T13:02:30Z</time>
      </trkpt>
      <trkpt lat="45.973479514941573" lon="8.04002202115953">
        <ele>1193.02</ele>
        <time>2025-05-04T13:02:41Z</time>
      </trkpt>
      <trkpt lat="45.97344514913857" lon="8.040145989507437">
        <ele>1192.23</ele>
        <time>2025-05-04T13:02:50Z</time>
      </trkpt>
      <trkpt lat="45.973412040621042" lon="8.040274316444993">
        <ele>1191.23</ele>
        <time>2025-05-04T13:02:59Z</time>
      </trkpt>
      <trkpt lat="45.973357977345586" lon="8.040351597592235">
        <ele>1190.0999999999999</ele>
        <time>2025-05-04T13:03:08Z</time>
      </trkpt>
      <trkpt lat="45.973371220752597" lon="8.040264090523124">
        <ele>1189.21</ele>
        <time>2025-05-04T13:03:52Z</time>
      </trkpt>
    </trkseg>
  </trk>

</gpx>